<?xml version="1.0" encoding="UTF-8" standalone="no" ?>
<gpx xmlns="http://www.topografix.com/GPX/1/1" xmlns:xsi="http://www.w3.org/2001/XMLSchema-instance" xsi:schemaLocation="http://www.topografix.com/GPX/1/1 http://www.topografix.com/GPX/1/1/gpx.xsd" version="1.1" creator="VisuGPX - https://www.visugpx.com">
  <metadata>
    <name>Option Ouille</name>
  </metadata>
  <trk>
    <name><![CDATA[Option Ouille_1]]></name>
    <trkseg>
      <trkpt lat="45.26572" lon="6.80935">
        <ele>1339.4</ele>
        <time>2016-10-29T14:12:12Z</time>
      </trkpt>
      <trkpt lat="45.26563" lon="6.80925">
        <ele>1339.3</ele>
        <time>2016-10-29T14:12:15Z</time>
      </trkpt>
      <trkpt lat="45.26554" lon="6.80915">
        <ele>1339.2</ele>
        <time>2016-10-29T14:12:18Z</time>
      </trkpt>
      <trkpt lat="45.26545" lon="6.80903">
        <ele>1339</ele>
        <time>2016-10-29T14:12:21Z</time>
      </trkpt>
      <trkpt lat="45.26536" lon="6.80891">
        <ele>1338.9</ele>
        <time>2016-10-29T14:12:24Z</time>
      </trkpt>
      <trkpt lat="45.26529" lon="6.8088">
        <ele>1338.8</ele>
        <time>2016-10-29T14:12:27Z</time>
      </trkpt>
      <trkpt lat="45.26522" lon="6.80868">
        <ele>1339.2</ele>
        <time>2016-10-29T14:12:30Z</time>
      </trkpt>
      <trkpt lat="45.26516" lon="6.80857">
        <ele>1339.4</ele>
        <time>2016-10-29T14:12:33Z</time>
      </trkpt>
      <trkpt lat="45.26509" lon="6.80846">
        <ele>1339.7</ele>
        <time>2016-10-29T14:12:36Z</time>
      </trkpt>
      <trkpt lat="45.26509" lon="6.80846">
        <ele>1339.7</ele>
        <time>2016-10-29T14:12:36Z</time>
      </trkpt>
      <trkpt lat="45.26501" lon="6.80836">
        <ele>1339.8</ele>
        <time>2016-10-29T14:12:38Z</time>
      </trkpt>
      <trkpt lat="45.26493" lon="6.80825">
        <ele>1339.9</ele>
        <time>2016-10-29T14:12:40Z</time>
      </trkpt>
      <trkpt lat="45.26487" lon="6.80813">
        <ele>1339.9</ele>
        <time>2016-10-29T14:12:42Z</time>
      </trkpt>
      <trkpt lat="45.26481" lon="6.80802">
        <ele>1339.8</ele>
        <time>2016-10-29T14:12:44Z</time>
      </trkpt>
      <trkpt lat="45.26475" lon="6.80791">
        <ele>1339.6</ele>
        <time>2016-10-29T14:12:46Z</time>
      </trkpt>
      <trkpt lat="45.26469" lon="6.80781">
        <ele>1339.4</ele>
        <time>2016-10-29T14:12:48Z</time>
      </trkpt>
      <trkpt lat="45.26464" lon="6.80768">
        <ele>1339.2</ele>
        <time>2016-10-29T14:12:50Z</time>
      </trkpt>
      <trkpt lat="45.26462" lon="6.80754">
        <ele>1339.1</ele>
        <time>2016-10-29T14:12:52Z</time>
      </trkpt>
      <trkpt lat="45.26463" lon="6.8074">
        <ele>1338.9</ele>
        <time>2016-10-29T14:12:54Z</time>
      </trkpt>
      <trkpt lat="45.26465" lon="6.80726">
        <ele>1338.8</ele>
        <time>2016-10-29T14:12:56Z</time>
      </trkpt>
      <trkpt lat="45.26466" lon="6.80713">
        <ele>1338.7</ele>
        <time>2016-10-29T14:12:58Z</time>
      </trkpt>
      <trkpt lat="45.26467" lon="6.80694">
        <ele>1338.5</ele>
        <time>2016-10-29T14:13:01Z</time>
      </trkpt>
      <trkpt lat="45.26465" lon="6.80675">
        <ele>1338.2</ele>
        <time>2016-10-29T14:13:04Z</time>
      </trkpt>
      <trkpt lat="45.26463" lon="6.80662">
        <ele>1338.1</ele>
        <time>2016-10-29T14:13:06Z</time>
      </trkpt>
      <trkpt lat="45.26459" lon="6.80647">
        <ele>1337.9</ele>
        <time>2016-10-29T14:13:09Z</time>
      </trkpt>
      <trkpt lat="45.26454" lon="6.80635">
        <ele>1337.7</ele>
        <time>2016-10-29T14:13:12Z</time>
      </trkpt>
      <trkpt lat="45.26448" lon="6.80621">
        <ele>1337.6</ele>
        <time>2016-10-29T14:13:16Z</time>
      </trkpt>
      <trkpt lat="45.26442" lon="6.80607">
        <ele>1337.6</ele>
        <time>2016-10-29T14:13:20Z</time>
      </trkpt>
      <trkpt lat="45.26436" lon="6.80594">
        <ele>1337.8</ele>
        <time>2016-10-29T14:13:24Z</time>
      </trkpt>
      <trkpt lat="45.2643" lon="6.80582">
        <ele>1338.4</ele>
        <time>2016-10-29T14:13:28Z</time>
      </trkpt>
      <trkpt lat="45.26425" lon="6.80569">
        <ele>1339</ele>
        <time>2016-10-29T14:13:32Z</time>
      </trkpt>
      <trkpt lat="45.2642" lon="6.80558">
        <ele>1339.5</ele>
        <time>2016-10-29T14:13:36Z</time>
      </trkpt>
      <trkpt lat="45.26414" lon="6.80546">
        <ele>1340</ele>
        <time>2016-10-29T14:13:40Z</time>
      </trkpt>
      <trkpt lat="45.26409" lon="6.80534">
        <ele>1340.7</ele>
        <time>2016-10-29T14:13:44Z</time>
      </trkpt>
      <trkpt lat="45.26404" lon="6.80523">
        <ele>1341.5</ele>
        <time>2016-10-29T14:13:48Z</time>
      </trkpt>
      <trkpt lat="45.26398" lon="6.80513">
        <ele>1342.3</ele>
        <time>2016-10-29T14:13:52Z</time>
      </trkpt>
      <trkpt lat="45.26393" lon="6.80502">
        <ele>1343.1</ele>
        <time>2016-10-29T14:13:56Z</time>
      </trkpt>
      <trkpt lat="45.26388" lon="6.80488">
        <ele>1343.9</ele>
        <time>2016-10-29T14:14:01Z</time>
      </trkpt>
      <trkpt lat="45.26384" lon="6.80477">
        <ele>1344.6</ele>
        <time>2016-10-29T14:14:05Z</time>
      </trkpt>
      <trkpt lat="45.26382" lon="6.80464">
        <ele>1345.4</ele>
        <time>2016-10-29T14:14:09Z</time>
      </trkpt>
      <trkpt lat="45.2638" lon="6.80451">
        <ele>1346</ele>
        <time>2016-10-29T14:14:13Z</time>
      </trkpt>
      <trkpt lat="45.26378" lon="6.80439">
        <ele>1346.8</ele>
        <time>2016-10-29T14:14:17Z</time>
      </trkpt>
      <trkpt lat="45.26377" lon="6.80426">
        <ele>1347.7</ele>
        <time>2016-10-29T14:14:21Z</time>
      </trkpt>
      <trkpt lat="45.26376" lon="6.8041">
        <ele>1348.8</ele>
        <time>2016-10-29T14:14:26Z</time>
      </trkpt>
      <trkpt lat="45.26374" lon="6.80395">
        <ele>1349.7</ele>
        <time>2016-10-29T14:14:31Z</time>
      </trkpt>
      <trkpt lat="45.26372" lon="6.8038">
        <ele>1350.7</ele>
        <time>2016-10-29T14:14:36Z</time>
      </trkpt>
      <trkpt lat="45.2637" lon="6.80365">
        <ele>1351.5</ele>
        <time>2016-10-29T14:14:41Z</time>
      </trkpt>
      <trkpt lat="45.26368" lon="6.8035">
        <ele>1352.5</ele>
        <time>2016-10-29T14:14:46Z</time>
      </trkpt>
      <trkpt lat="45.26367" lon="6.80335">
        <ele>1353.4</ele>
        <time>2016-10-29T14:14:51Z</time>
      </trkpt>
      <trkpt lat="45.26365" lon="6.80319">
        <ele>1354.1</ele>
        <time>2016-10-29T14:14:56Z</time>
      </trkpt>
      <trkpt lat="45.26364" lon="6.80306">
        <ele>1355</ele>
        <time>2016-10-29T14:15:00Z</time>
      </trkpt>
      <trkpt lat="45.26362" lon="6.80291">
        <ele>1356</ele>
        <time>2016-10-29T14:15:05Z</time>
      </trkpt>
      <trkpt lat="45.2636" lon="6.80275">
        <ele>1356.9</ele>
        <time>2016-10-29T14:15:10Z</time>
      </trkpt>
      <trkpt lat="45.26358" lon="6.80263">
        <ele>1357.5</ele>
        <time>2016-10-29T14:15:14Z</time>
      </trkpt>
      <trkpt lat="45.26357" lon="6.8025">
        <ele>1358.2</ele>
        <time>2016-10-29T14:15:18Z</time>
      </trkpt>
      <trkpt lat="45.26357" lon="6.80236">
        <ele>1358.8</ele>
        <time>2016-10-29T14:15:22Z</time>
      </trkpt>
      <trkpt lat="45.26357" lon="6.80221">
        <ele>1359.7</ele>
        <time>2016-10-29T14:15:26Z</time>
      </trkpt>
      <trkpt lat="45.26357" lon="6.80208">
        <ele>1360.5</ele>
        <time>2016-10-29T14:15:30Z</time>
      </trkpt>
      <trkpt lat="45.26358" lon="6.80195">
        <ele>1361.5</ele>
        <time>2016-10-29T14:15:34Z</time>
      </trkpt>
      <trkpt lat="45.26359" lon="6.80182">
        <ele>1362.3</ele>
        <time>2016-10-29T14:15:38Z</time>
      </trkpt>
      <trkpt lat="45.26361" lon="6.80169">
        <ele>1363.1</ele>
        <time>2016-10-29T14:15:42Z</time>
      </trkpt>
      <trkpt lat="45.26362" lon="6.80156">
        <ele>1363.9</ele>
        <time>2016-10-29T14:15:46Z</time>
      </trkpt>
      <trkpt lat="45.26363" lon="6.8014">
        <ele>1364.7</ele>
        <time>2016-10-29T14:15:51Z</time>
      </trkpt>
      <trkpt lat="45.26362" lon="6.80125">
        <ele>1365.8</ele>
        <time>2016-10-29T14:15:56Z</time>
      </trkpt>
      <trkpt lat="45.26362" lon="6.80109">
        <ele>1366.6</ele>
        <time>2016-10-29T14:16:01Z</time>
      </trkpt>
      <trkpt lat="45.2636" lon="6.80096">
        <ele>1367.3</ele>
        <time>2016-10-29T14:16:05Z</time>
      </trkpt>
      <trkpt lat="45.26359" lon="6.80081">
        <ele>1368.2</ele>
        <time>2016-10-29T14:16:10Z</time>
      </trkpt>
      <trkpt lat="45.26356" lon="6.80067">
        <ele>1369.1</ele>
        <time>2016-10-29T14:16:15Z</time>
      </trkpt>
      <trkpt lat="45.26352" lon="6.80052">
        <ele>1370.1</ele>
        <time>2016-10-29T14:16:20Z</time>
      </trkpt>
      <trkpt lat="45.26347" lon="6.80039">
        <ele>1371</ele>
        <time>2016-10-29T14:16:25Z</time>
      </trkpt>
      <trkpt lat="45.26342" lon="6.80027">
        <ele>1371.8</ele>
        <time>2016-10-29T14:16:30Z</time>
      </trkpt>
      <trkpt lat="45.26336" lon="6.80014">
        <ele>1372.6</ele>
        <time>2016-10-29T14:16:35Z</time>
      </trkpt>
      <trkpt lat="45.2633" lon="6.80003">
        <ele>1373.5</ele>
        <time>2016-10-29T14:16:40Z</time>
      </trkpt>
      <trkpt lat="45.26322" lon="6.79992">
        <ele>1374.4</ele>
        <time>2016-10-29T14:16:45Z</time>
      </trkpt>
      <trkpt lat="45.26315" lon="6.7998">
        <ele>1375</ele>
        <time>2016-10-29T14:16:50Z</time>
      </trkpt>
      <trkpt lat="45.26306" lon="6.7997">
        <ele>1375.8</ele>
        <time>2016-10-29T14:16:55Z</time>
      </trkpt>
      <trkpt lat="45.26298" lon="6.7996">
        <ele>1376.7</ele>
        <time>2016-10-29T14:17:00Z</time>
      </trkpt>
      <trkpt lat="45.26291" lon="6.79952">
        <ele>1377.4</ele>
        <time>2016-10-29T14:17:04Z</time>
      </trkpt>
      <trkpt lat="45.26283" lon="6.79943">
        <ele>1378.3</ele>
        <time>2016-10-29T14:17:09Z</time>
      </trkpt>
      <trkpt lat="45.26275" lon="6.79933">
        <ele>1379.2</ele>
        <time>2016-10-29T14:17:14Z</time>
      </trkpt>
      <trkpt lat="45.26267" lon="6.79923">
        <ele>1380.2</ele>
        <time>2016-10-29T14:17:19Z</time>
      </trkpt>
      <trkpt lat="45.2626" lon="6.79914">
        <ele>1381.1</ele>
        <time>2016-10-29T14:17:23Z</time>
      </trkpt>
      <trkpt lat="45.26252" lon="6.79906">
        <ele>1381.9</ele>
        <time>2016-10-29T14:17:27Z</time>
      </trkpt>
      <trkpt lat="45.26245" lon="6.79899">
        <ele>1382.5</ele>
        <time>2016-10-29T14:17:31Z</time>
      </trkpt>
      <trkpt lat="45.26236" lon="6.79889">
        <ele>1383.5</ele>
        <time>2016-10-29T14:17:36Z</time>
      </trkpt>
      <trkpt lat="45.26227" lon="6.7988">
        <ele>1384.6</ele>
        <time>2016-10-29T14:17:41Z</time>
      </trkpt>
      <trkpt lat="45.26219" lon="6.79872">
        <ele>1385.4</ele>
        <time>2016-10-29T14:17:45Z</time>
      </trkpt>
      <trkpt lat="45.26212" lon="6.79863">
        <ele>1386</ele>
        <time>2016-10-29T14:17:49Z</time>
      </trkpt>
      <trkpt lat="45.26205" lon="6.79854">
        <ele>1386.5</ele>
        <time>2016-10-29T14:17:53Z</time>
      </trkpt>
      <trkpt lat="45.26197" lon="6.79844">
        <ele>1387</ele>
        <time>2016-10-29T14:17:57Z</time>
      </trkpt>
      <trkpt lat="45.26191" lon="6.79834">
        <ele>1387.5</ele>
        <time>2016-10-29T14:18:01Z</time>
      </trkpt>
      <trkpt lat="45.26184" lon="6.79824">
        <ele>1388.2</ele>
        <time>2016-10-29T14:18:05Z</time>
      </trkpt>
      <trkpt lat="45.26178" lon="6.79813">
        <ele>1388.9</ele>
        <time>2016-10-29T14:18:09Z</time>
      </trkpt>
      <trkpt lat="45.2617" lon="6.79803">
        <ele>1389.6</ele>
        <time>2016-10-29T14:18:13Z</time>
      </trkpt>
      <trkpt lat="45.26162" lon="6.79792">
        <ele>1390.3</ele>
        <time>2016-10-29T14:18:17Z</time>
      </trkpt>
      <trkpt lat="45.26153" lon="6.79782">
        <ele>1390.9</ele>
        <time>2016-10-29T14:18:21Z</time>
      </trkpt>
      <trkpt lat="45.26144" lon="6.79773">
        <ele>1391.6</ele>
        <time>2016-10-29T14:18:25Z</time>
      </trkpt>
      <trkpt lat="45.26134" lon="6.79765">
        <ele>1392.1</ele>
        <time>2016-10-29T14:18:29Z</time>
      </trkpt>
      <trkpt lat="45.26126" lon="6.79755">
        <ele>1392.6</ele>
        <time>2016-10-29T14:18:33Z</time>
      </trkpt>
      <trkpt lat="45.26116" lon="6.79745">
        <ele>1393.1</ele>
        <time>2016-10-29T14:18:37Z</time>
      </trkpt>
      <trkpt lat="45.26108" lon="6.79739">
        <ele>1393.4</ele>
        <time>2016-10-29T14:18:40Z</time>
      </trkpt>
      <trkpt lat="45.26099" lon="6.79728">
        <ele>1393.8</ele>
        <time>2016-10-29T14:18:44Z</time>
      </trkpt>
      <trkpt lat="45.26092" lon="6.7972">
        <ele>1394.1</ele>
        <time>2016-10-29T14:18:47Z</time>
      </trkpt>
      <trkpt lat="45.26084" lon="6.79711">
        <ele>1394.7</ele>
        <time>2016-10-29T14:18:51Z</time>
      </trkpt>
      <trkpt lat="45.26076" lon="6.79701">
        <ele>1395.4</ele>
        <time>2016-10-29T14:18:55Z</time>
      </trkpt>
      <trkpt lat="45.26067" lon="6.7969">
        <ele>1395.9</ele>
        <time>2016-10-29T14:18:59Z</time>
      </trkpt>
      <trkpt lat="45.26059" lon="6.79681">
        <ele>1396.3</ele>
        <time>2016-10-29T14:19:03Z</time>
      </trkpt>
      <trkpt lat="45.26051" lon="6.79671">
        <ele>1396.8</ele>
        <time>2016-10-29T14:19:07Z</time>
      </trkpt>
      <trkpt lat="45.26044" lon="6.79661">
        <ele>1397.4</ele>
        <time>2016-10-29T14:19:11Z</time>
      </trkpt>
      <trkpt lat="45.26036" lon="6.79653">
        <ele>1398.1</ele>
        <time>2016-10-29T14:19:15Z</time>
      </trkpt>
      <trkpt lat="45.26027" lon="6.79644">
        <ele>1398.7</ele>
        <time>2016-10-29T14:19:19Z</time>
      </trkpt>
      <trkpt lat="45.26019" lon="6.79634">
        <ele>1399.4</ele>
        <time>2016-10-29T14:19:23Z</time>
      </trkpt>
      <trkpt lat="45.26012" lon="6.79625">
        <ele>1400.1</ele>
        <time>2016-10-29T14:19:27Z</time>
      </trkpt>
      <trkpt lat="45.26004" lon="6.79617">
        <ele>1400.7</ele>
        <time>2016-10-29T14:19:31Z</time>
      </trkpt>
      <trkpt lat="45.25997" lon="6.79608">
        <ele>1401.2</ele>
        <time>2016-10-29T14:19:35Z</time>
      </trkpt>
      <trkpt lat="45.25989" lon="6.796">
        <ele>1402</ele>
        <time>2016-10-29T14:19:39Z</time>
      </trkpt>
      <trkpt lat="45.25981" lon="6.79591">
        <ele>1402.8</ele>
        <time>2016-10-29T14:19:43Z</time>
      </trkpt>
      <trkpt lat="45.25973" lon="6.79583">
        <ele>1403.5</ele>
        <time>2016-10-29T14:19:47Z</time>
      </trkpt>
      <trkpt lat="45.25965" lon="6.79575">
        <ele>1404</ele>
        <time>2016-10-29T14:19:51Z</time>
      </trkpt>
      <trkpt lat="45.25957" lon="6.79566">
        <ele>1404.5</ele>
        <time>2016-10-29T14:19:55Z</time>
      </trkpt>
      <trkpt lat="45.25949" lon="6.79557">
        <ele>1405.3</ele>
        <time>2016-10-29T14:19:59Z</time>
      </trkpt>
      <trkpt lat="45.25942" lon="6.79546">
        <ele>1405.9</ele>
        <time>2016-10-29T14:20:03Z</time>
      </trkpt>
      <trkpt lat="45.25936" lon="6.79534">
        <ele>1406.5</ele>
        <time>2016-10-29T14:20:07Z</time>
      </trkpt>
      <trkpt lat="45.25931" lon="6.79522">
        <ele>1407.2</ele>
        <time>2016-10-29T14:20:11Z</time>
      </trkpt>
      <trkpt lat="45.25928" lon="6.79508">
        <ele>1408.2</ele>
        <time>2016-10-29T14:20:15Z</time>
      </trkpt>
      <trkpt lat="45.25927" lon="6.79495">
        <ele>1409</ele>
        <time>2016-10-29T14:20:19Z</time>
      </trkpt>
      <trkpt lat="45.25923" lon="6.79481">
        <ele>1409.6</ele>
        <time>2016-10-29T14:20:23Z</time>
      </trkpt>
      <trkpt lat="45.25918" lon="6.79469">
        <ele>1410.2</ele>
        <time>2016-10-29T14:20:27Z</time>
      </trkpt>
      <trkpt lat="45.25908" lon="6.7946">
        <ele>1411.8</ele>
        <time>2016-10-29T14:20:32Z</time>
      </trkpt>
      <trkpt lat="45.25898" lon="6.79456">
        <ele>1412.9</ele>
        <time>2016-10-29T14:20:36Z</time>
      </trkpt>
      <trkpt lat="45.25889" lon="6.79453">
        <ele>1413.6</ele>
        <time>2016-10-29T14:20:40Z</time>
      </trkpt>
      <trkpt lat="45.25879" lon="6.79451">
        <ele>1414.1</ele>
        <time>2016-10-29T14:20:44Z</time>
      </trkpt>
      <trkpt lat="45.2587" lon="6.79444">
        <ele>1414.4</ele>
        <time>2016-10-29T14:20:48Z</time>
      </trkpt>
      <trkpt lat="45.25863" lon="6.79433">
        <ele>1415.1</ele>
        <time>2016-10-29T14:20:52Z</time>
      </trkpt>
      <trkpt lat="45.25859" lon="6.79421">
        <ele>1415.9</ele>
        <time>2016-10-29T14:20:56Z</time>
      </trkpt>
      <trkpt lat="45.25853" lon="6.79409">
        <ele>1416.5</ele>
        <time>2016-10-29T14:21:00Z</time>
      </trkpt>
      <trkpt lat="45.25848" lon="6.79397">
        <ele>1417</ele>
        <time>2016-10-29T14:21:04Z</time>
      </trkpt>
      <trkpt lat="45.25844" lon="6.79385">
        <ele>1417.4</ele>
        <time>2016-10-29T14:21:08Z</time>
      </trkpt>
      <trkpt lat="45.25839" lon="6.79373">
        <ele>1417.8</ele>
        <time>2016-10-29T14:21:12Z</time>
      </trkpt>
      <trkpt lat="45.25834" lon="6.7936">
        <ele>1418.3</ele>
        <time>2016-10-29T14:21:16Z</time>
      </trkpt>
      <trkpt lat="45.25829" lon="6.79346">
        <ele>1418.8</ele>
        <time>2016-10-29T14:21:20Z</time>
      </trkpt>
      <trkpt lat="45.25826" lon="6.79332">
        <ele>1419.3</ele>
        <time>2016-10-29T14:21:24Z</time>
      </trkpt>
      <trkpt lat="45.25827" lon="6.79318">
        <ele>1419.6</ele>
        <time>2016-10-29T14:21:28Z</time>
      </trkpt>
      <trkpt lat="45.25827" lon="6.79304">
        <ele>1420.3</ele>
        <time>2016-10-29T14:21:32Z</time>
      </trkpt>
      <trkpt lat="45.25827" lon="6.7929">
        <ele>1420.9</ele>
        <time>2016-10-29T14:21:36Z</time>
      </trkpt>
      <trkpt lat="45.25826" lon="6.79276">
        <ele>1421.7</ele>
        <time>2016-10-29T14:21:40Z</time>
      </trkpt>
      <trkpt lat="45.25821" lon="6.79263">
        <ele>1422.3</ele>
        <time>2016-10-29T14:21:44Z</time>
      </trkpt>
      <trkpt lat="45.25812" lon="6.79252">
        <ele>1423</ele>
        <time>2016-10-29T14:21:48Z</time>
      </trkpt>
      <trkpt lat="45.25804" lon="6.79245">
        <ele>1423.4</ele>
        <time>2016-10-29T14:21:51Z</time>
      </trkpt>
      <trkpt lat="45.25795" lon="6.7924">
        <ele>1423.9</ele>
        <time>2016-10-29T14:21:54Z</time>
      </trkpt>
      <trkpt lat="45.25785" lon="6.79235">
        <ele>1424.3</ele>
        <time>2016-10-29T14:21:57Z</time>
      </trkpt>
      <trkpt lat="45.25777" lon="6.79229">
        <ele>1424.6</ele>
        <time>2016-10-29T14:22:00Z</time>
      </trkpt>
      <trkpt lat="45.25767" lon="6.79222">
        <ele>1424.9</ele>
        <time>2016-10-29T14:22:03Z</time>
      </trkpt>
      <trkpt lat="45.25756" lon="6.79212">
        <ele>1425</ele>
        <time>2016-10-29T14:22:06Z</time>
      </trkpt>
      <trkpt lat="45.25748" lon="6.79206">
        <ele>1425</ele>
        <time>2016-10-29T14:22:08Z</time>
      </trkpt>
      <trkpt lat="45.2574" lon="6.79199">
        <ele>1424.9</ele>
        <time>2016-10-29T14:22:10Z</time>
      </trkpt>
      <trkpt lat="45.25732" lon="6.79192">
        <ele>1424.8</ele>
        <time>2016-10-29T14:22:12Z</time>
      </trkpt>
      <trkpt lat="45.2572" lon="6.79184">
        <ele>1424.8</ele>
        <time>2016-10-29T14:22:15Z</time>
      </trkpt>
      <trkpt lat="45.25708" lon="6.79176">
        <ele>1424.6</ele>
        <time>2016-10-29T14:22:18Z</time>
      </trkpt>
      <trkpt lat="45.25717" lon="6.79179">
        <ele>1424.1</ele>
        <time>2016-10-29T14:22:36Z</time>
      </trkpt>
      <trkpt lat="45.25726" lon="6.79185">
        <ele>1424.1</ele>
        <time>2016-10-29T14:22:42Z</time>
      </trkpt>
      <trkpt lat="45.25735" lon="6.7919">
        <ele>1424.5</ele>
        <time>2016-10-29T14:22:48Z</time>
      </trkpt>
      <trkpt lat="45.25744" lon="6.79196">
        <ele>1425.3</ele>
        <time>2016-10-29T14:22:55Z</time>
      </trkpt>
      <trkpt lat="45.25754" lon="6.79201">
        <ele>1425.9</ele>
        <time>2016-10-29T14:23:01Z</time>
      </trkpt>
      <trkpt lat="45.25763" lon="6.79209">
        <ele>1426.9</ele>
        <time>2016-10-29T14:23:07Z</time>
      </trkpt>
      <trkpt lat="45.25773" lon="6.79216">
        <ele>1427.7</ele>
        <time>2016-10-29T14:23:13Z</time>
      </trkpt>
      <trkpt lat="45.25783" lon="6.79221">
        <ele>1429</ele>
        <time>2016-10-29T14:23:19Z</time>
      </trkpt>
      <trkpt lat="45.25792" lon="6.79224">
        <ele>1430</ele>
        <time>2016-10-29T14:23:24Z</time>
      </trkpt>
      <trkpt lat="45.25801" lon="6.79225">
        <ele>1430.7</ele>
        <time>2016-10-29T14:23:29Z</time>
      </trkpt>
      <trkpt lat="45.25811" lon="6.79224">
        <ele>1431.5</ele>
        <time>2016-10-29T14:23:35Z</time>
      </trkpt>
      <trkpt lat="45.2582" lon="6.79223">
        <ele>1432.2</ele>
        <time>2016-10-29T14:23:40Z</time>
      </trkpt>
      <trkpt lat="45.25831" lon="6.79224">
        <ele>1433.3</ele>
        <time>2016-10-29T14:23:46Z</time>
      </trkpt>
      <trkpt lat="45.25841" lon="6.79222">
        <ele>1434.9</ele>
        <time>2016-10-29T14:23:52Z</time>
      </trkpt>
      <trkpt lat="45.25842" lon="6.79208">
        <ele>1436.1</ele>
        <time>2016-10-29T14:23:59Z</time>
      </trkpt>
      <trkpt lat="45.25834" lon="6.79199">
        <ele>1437.1</ele>
        <time>2016-10-29T14:24:06Z</time>
      </trkpt>
      <trkpt lat="45.25825" lon="6.79195">
        <ele>1438.3</ele>
        <time>2016-10-29T14:24:13Z</time>
      </trkpt>
      <trkpt lat="45.25816" lon="6.7919">
        <ele>1439.8</ele>
        <time>2016-10-29T14:24:21Z</time>
      </trkpt>
      <trkpt lat="45.25807" lon="6.79186">
        <ele>1440.9</ele>
        <time>2016-10-29T14:24:28Z</time>
      </trkpt>
      <trkpt lat="45.25799" lon="6.79179">
        <ele>1441.9</ele>
        <time>2016-10-29T14:24:34Z</time>
      </trkpt>
      <trkpt lat="45.25791" lon="6.79169">
        <ele>1443.3</ele>
        <time>2016-10-29T14:24:40Z</time>
      </trkpt>
      <trkpt lat="45.25784" lon="6.7916">
        <ele>1444.3</ele>
        <time>2016-10-29T14:24:45Z</time>
      </trkpt>
      <trkpt lat="45.25776" lon="6.79149">
        <ele>1445.1</ele>
        <time>2016-10-29T14:24:51Z</time>
      </trkpt>
      <trkpt lat="45.25769" lon="6.79138">
        <ele>1445.8</ele>
        <time>2016-10-29T14:24:57Z</time>
      </trkpt>
      <trkpt lat="45.25763" lon="6.79125">
        <ele>1446.3</ele>
        <time>2016-10-29T14:25:03Z</time>
      </trkpt>
      <trkpt lat="45.25759" lon="6.79113">
        <ele>1446.9</ele>
        <time>2016-10-29T14:25:08Z</time>
      </trkpt>
      <trkpt lat="45.25757" lon="6.79101">
        <ele>1447.5</ele>
        <time>2016-10-29T14:25:13Z</time>
      </trkpt>
      <trkpt lat="45.25754" lon="6.79088">
        <ele>1447.9</ele>
        <time>2016-10-29T14:25:18Z</time>
      </trkpt>
      <trkpt lat="45.25751" lon="6.79073">
        <ele>1448.7</ele>
        <time>2016-10-29T14:25:24Z</time>
      </trkpt>
      <trkpt lat="45.25748" lon="6.79061">
        <ele>1449.3</ele>
        <time>2016-10-29T14:25:29Z</time>
      </trkpt>
      <trkpt lat="45.25745" lon="6.79048">
        <ele>1450</ele>
        <time>2016-10-29T14:25:34Z</time>
      </trkpt>
      <trkpt lat="45.25741" lon="6.79035">
        <ele>1450.7</ele>
        <time>2016-10-29T14:25:39Z</time>
      </trkpt>
      <trkpt lat="45.25738" lon="6.79021">
        <ele>1451.3</ele>
        <time>2016-10-29T14:25:44Z</time>
      </trkpt>
      <trkpt lat="45.25735" lon="6.79008">
        <ele>1452</ele>
        <time>2016-10-29T14:25:49Z</time>
      </trkpt>
      <trkpt lat="45.25732" lon="6.78995">
        <ele>1452.7</ele>
        <time>2016-10-29T14:25:54Z</time>
      </trkpt>
      <trkpt lat="45.2573" lon="6.78981">
        <ele>1453.3</ele>
        <time>2016-10-29T14:25:59Z</time>
      </trkpt>
      <trkpt lat="45.25727" lon="6.78968">
        <ele>1453.9</ele>
        <time>2016-10-29T14:26:04Z</time>
      </trkpt>
      <trkpt lat="45.25725" lon="6.78955">
        <ele>1454.3</ele>
        <time>2016-10-29T14:26:08Z</time>
      </trkpt>
      <trkpt lat="45.2572" lon="6.78941">
        <ele>1454.9</ele>
        <time>2016-10-29T14:26:13Z</time>
      </trkpt>
      <trkpt lat="45.25715" lon="6.78931">
        <ele>1455.3</ele>
        <time>2016-10-29T14:26:17Z</time>
      </trkpt>
      <trkpt lat="45.25707" lon="6.78921">
        <ele>1455.7</ele>
        <time>2016-10-29T14:26:21Z</time>
      </trkpt>
      <trkpt lat="45.25698" lon="6.78915">
        <ele>1456.2</ele>
        <time>2016-10-29T14:26:25Z</time>
      </trkpt>
      <trkpt lat="45.25689" lon="6.78907">
        <ele>1456.6</ele>
        <time>2016-10-29T14:26:30Z</time>
      </trkpt>
      <trkpt lat="45.25681" lon="6.78897">
        <ele>1456.9</ele>
        <time>2016-10-29T14:26:35Z</time>
      </trkpt>
      <trkpt lat="45.25673" lon="6.78887">
        <ele>1457.5</ele>
        <time>2016-10-29T14:26:40Z</time>
      </trkpt>
      <trkpt lat="45.25664" lon="6.78879">
        <ele>1458</ele>
        <time>2016-10-29T14:26:45Z</time>
      </trkpt>
      <trkpt lat="45.25656" lon="6.78871">
        <ele>1458.6</ele>
        <time>2016-10-29T14:26:50Z</time>
      </trkpt>
      <trkpt lat="45.2565" lon="6.78863">
        <ele>1459.2</ele>
        <time>2016-10-29T14:26:55Z</time>
      </trkpt>
      <trkpt lat="45.25643" lon="6.78852">
        <ele>1460</ele>
        <time>2016-10-29T14:27:00Z</time>
      </trkpt>
      <trkpt lat="45.25637" lon="6.78842">
        <ele>1460.9</ele>
        <time>2016-10-29T14:27:05Z</time>
      </trkpt>
      <trkpt lat="45.25629" lon="6.78833">
        <ele>1461.7</ele>
        <time>2016-10-29T14:27:10Z</time>
      </trkpt>
      <trkpt lat="45.2562" lon="6.78826">
        <ele>1462.6</ele>
        <time>2016-10-29T14:27:16Z</time>
      </trkpt>
      <trkpt lat="45.25612" lon="6.78821">
        <ele>1463.2</ele>
        <time>2016-10-29T14:27:21Z</time>
      </trkpt>
      <trkpt lat="45.25604" lon="6.78813">
        <ele>1464</ele>
        <time>2016-10-29T14:27:26Z</time>
      </trkpt>
      <trkpt lat="45.25596" lon="6.78805">
        <ele>1464.6</ele>
        <time>2016-10-29T14:27:31Z</time>
      </trkpt>
      <trkpt lat="45.25589" lon="6.78795">
        <ele>1465.1</ele>
        <time>2016-10-29T14:27:36Z</time>
      </trkpt>
      <trkpt lat="45.25583" lon="6.78783">
        <ele>1465.7</ele>
        <time>2016-10-29T14:27:41Z</time>
      </trkpt>
      <trkpt lat="45.2558" lon="6.78771">
        <ele>1466.5</ele>
        <time>2016-10-29T14:27:46Z</time>
      </trkpt>
      <trkpt lat="45.25576" lon="6.78758">
        <ele>1467.2</ele>
        <time>2016-10-29T14:27:51Z</time>
      </trkpt>
      <trkpt lat="45.25569" lon="6.78747">
        <ele>1467.9</ele>
        <time>2016-10-29T14:27:56Z</time>
      </trkpt>
      <trkpt lat="45.2556" lon="6.78739">
        <ele>1468.5</ele>
        <time>2016-10-29T14:28:01Z</time>
      </trkpt>
      <trkpt lat="45.25551" lon="6.78736">
        <ele>1469.2</ele>
        <time>2016-10-29T14:28:06Z</time>
      </trkpt>
      <trkpt lat="45.25541" lon="6.78736">
        <ele>1469.9</ele>
        <time>2016-10-29T14:28:11Z</time>
      </trkpt>
      <trkpt lat="45.25532" lon="6.78736">
        <ele>1471</ele>
        <time>2016-10-29T14:28:17Z</time>
      </trkpt>
      <trkpt lat="45.25523" lon="6.7873">
        <ele>1472</ele>
        <time>2016-10-29T14:28:23Z</time>
      </trkpt>
      <trkpt lat="45.25514" lon="6.78725">
        <ele>1473</ele>
        <time>2016-10-29T14:28:29Z</time>
      </trkpt>
      <trkpt lat="45.25506" lon="6.78718">
        <ele>1473.9</ele>
        <time>2016-10-29T14:28:36Z</time>
      </trkpt>
      <trkpt lat="45.25497" lon="6.78714">
        <ele>1475.3</ele>
        <time>2016-10-29T14:28:42Z</time>
      </trkpt>
      <trkpt lat="45.25489" lon="6.78708">
        <ele>1476.3</ele>
        <time>2016-10-29T14:28:48Z</time>
      </trkpt>
      <trkpt lat="45.25483" lon="6.78698">
        <ele>1477.2</ele>
        <time>2016-10-29T14:28:54Z</time>
      </trkpt>
      <trkpt lat="45.25477" lon="6.78685">
        <ele>1478.6</ele>
        <time>2016-10-29T14:29:01Z</time>
      </trkpt>
      <trkpt lat="45.25472" lon="6.78675">
        <ele>1479.9</ele>
        <time>2016-10-29T14:29:07Z</time>
      </trkpt>
      <trkpt lat="45.25466" lon="6.78663">
        <ele>1481.1</ele>
        <time>2016-10-29T14:29:14Z</time>
      </trkpt>
      <trkpt lat="45.2546" lon="6.78655">
        <ele>1482.1</ele>
        <time>2016-10-29T14:29:20Z</time>
      </trkpt>
      <trkpt lat="45.2545" lon="6.7865">
        <ele>1483.4</ele>
        <time>2016-10-29T14:29:27Z</time>
      </trkpt>
      <trkpt lat="45.25442" lon="6.78644">
        <ele>1484.6</ele>
        <time>2016-10-29T14:29:34Z</time>
      </trkpt>
      <trkpt lat="45.25443" lon="6.78631">
        <ele>1486.4</ele>
        <time>2016-10-29T14:29:42Z</time>
      </trkpt>
      <trkpt lat="45.25452" lon="6.78627">
        <ele>1487.7</ele>
        <time>2016-10-29T14:29:50Z</time>
      </trkpt>
      <trkpt lat="45.25462" lon="6.78626">
        <ele>1488.9</ele>
        <time>2016-10-29T14:29:58Z</time>
      </trkpt>
      <trkpt lat="45.25471" lon="6.78627">
        <ele>1489.8</ele>
        <time>2016-10-29T14:30:05Z</time>
      </trkpt>
      <trkpt lat="45.25479" lon="6.78634">
        <ele>1491.2</ele>
        <time>2016-10-29T14:30:12Z</time>
      </trkpt>
      <trkpt lat="45.25489" lon="6.7864">
        <ele>1492.4</ele>
        <time>2016-10-29T14:30:20Z</time>
      </trkpt>
      <trkpt lat="45.25498" lon="6.78644">
        <ele>1493.6</ele>
        <time>2016-10-29T14:30:27Z</time>
      </trkpt>
      <trkpt lat="45.25508" lon="6.78647">
        <ele>1495.3</ele>
        <time>2016-10-29T14:30:35Z</time>
      </trkpt>
      <trkpt lat="45.25517" lon="6.78644">
        <ele>1496.3</ele>
        <time>2016-10-29T14:30:42Z</time>
      </trkpt>
      <trkpt lat="45.25522" lon="6.78631">
        <ele>1497.9</ele>
        <time>2016-10-29T14:30:50Z</time>
      </trkpt>
      <trkpt lat="45.25513" lon="6.78624">
        <ele>1499.1</ele>
        <time>2016-10-29T14:30:58Z</time>
      </trkpt>
      <trkpt lat="45.25504" lon="6.78619">
        <ele>1500.2</ele>
        <time>2016-10-29T14:31:05Z</time>
      </trkpt>
      <trkpt lat="45.25498" lon="6.7861">
        <ele>1501.5</ele>
        <time>2016-10-29T14:31:12Z</time>
      </trkpt>
      <trkpt lat="45.25493" lon="6.78597">
        <ele>1502.8</ele>
        <time>2016-10-29T14:31:19Z</time>
      </trkpt>
      <trkpt lat="45.25489" lon="6.78584">
        <ele>1503.9</ele>
        <time>2016-10-29T14:31:26Z</time>
      </trkpt>
      <trkpt lat="45.25481" lon="6.78575">
        <ele>1505</ele>
        <time>2016-10-29T14:31:33Z</time>
      </trkpt>
      <trkpt lat="45.25473" lon="6.78567">
        <ele>1506.6</ele>
        <time>2016-10-29T14:31:41Z</time>
      </trkpt>
      <trkpt lat="45.25466" lon="6.78557">
        <ele>1507.8</ele>
        <time>2016-10-29T14:31:48Z</time>
      </trkpt>
      <trkpt lat="45.25458" lon="6.7855">
        <ele>1508.7</ele>
        <time>2016-10-29T14:31:55Z</time>
      </trkpt>
      <trkpt lat="45.25449" lon="6.78544">
        <ele>1510</ele>
        <time>2016-10-29T14:32:02Z</time>
      </trkpt>
      <trkpt lat="45.25441" lon="6.78537">
        <ele>1511.3</ele>
        <time>2016-10-29T14:32:10Z</time>
      </trkpt>
      <trkpt lat="45.25435" lon="6.78525">
        <ele>1512.5</ele>
        <time>2016-10-29T14:32:17Z</time>
      </trkpt>
      <trkpt lat="45.25431" lon="6.78512">
        <ele>1513.6</ele>
        <time>2016-10-29T14:32:24Z</time>
      </trkpt>
      <trkpt lat="45.25426" lon="6.78501">
        <ele>1514.5</ele>
        <time>2016-10-29T14:32:31Z</time>
      </trkpt>
      <trkpt lat="45.25418" lon="6.78491">
        <ele>1515.9</ele>
        <time>2016-10-29T14:32:38Z</time>
      </trkpt>
      <trkpt lat="45.25409" lon="6.78486">
        <ele>1516.9</ele>
        <time>2016-10-29T14:32:45Z</time>
      </trkpt>
      <trkpt lat="45.25399" lon="6.78482">
        <ele>1518.2</ele>
        <time>2016-10-29T14:32:52Z</time>
      </trkpt>
      <trkpt lat="45.25392" lon="6.78474">
        <ele>1519.5</ele>
        <time>2016-10-29T14:32:59Z</time>
      </trkpt>
      <trkpt lat="45.25385" lon="6.78465">
        <ele>1520.5</ele>
        <time>2016-10-29T14:33:05Z</time>
      </trkpt>
      <trkpt lat="45.2538" lon="6.78454">
        <ele>1521.4</ele>
        <time>2016-10-29T14:33:11Z</time>
      </trkpt>
      <trkpt lat="45.25376" lon="6.7844">
        <ele>1522.5</ele>
        <time>2016-10-29T14:33:18Z</time>
      </trkpt>
      <trkpt lat="45.25372" lon="6.78427">
        <ele>1523.8</ele>
        <time>2016-10-29T14:33:25Z</time>
      </trkpt>
      <trkpt lat="45.25365" lon="6.78418">
        <ele>1524.9</ele>
        <time>2016-10-29T14:33:31Z</time>
      </trkpt>
      <trkpt lat="45.2536" lon="6.78408">
        <ele>1525.8</ele>
        <time>2016-10-29T14:33:37Z</time>
      </trkpt>
      <trkpt lat="45.25354" lon="6.78396">
        <ele>1526.9</ele>
        <time>2016-10-29T14:33:44Z</time>
      </trkpt>
      <trkpt lat="45.25349" lon="6.78384">
        <ele>1527.8</ele>
        <time>2016-10-29T14:33:51Z</time>
      </trkpt>
      <trkpt lat="45.25344" lon="6.78373">
        <ele>1528.9</ele>
        <time>2016-10-29T14:33:58Z</time>
      </trkpt>
      <trkpt lat="45.25339" lon="6.78361">
        <ele>1530.3</ele>
        <time>2016-10-29T14:34:05Z</time>
      </trkpt>
      <trkpt lat="45.25336" lon="6.78349">
        <ele>1531.7</ele>
        <time>2016-10-29T14:34:12Z</time>
      </trkpt>
      <trkpt lat="45.25332" lon="6.78336">
        <ele>1533</ele>
        <time>2016-10-29T14:34:19Z</time>
      </trkpt>
      <trkpt lat="45.25329" lon="6.78323">
        <ele>1534.1</ele>
        <time>2016-10-29T14:34:26Z</time>
      </trkpt>
      <trkpt lat="45.25326" lon="6.78311">
        <ele>1535.3</ele>
        <time>2016-10-29T14:34:33Z</time>
      </trkpt>
      <trkpt lat="45.25323" lon="6.78298">
        <ele>1536.6</ele>
        <time>2016-10-29T14:34:40Z</time>
      </trkpt>
      <trkpt lat="45.25326" lon="6.78284">
        <ele>1537.7</ele>
        <time>2016-10-29T14:34:47Z</time>
      </trkpt>
      <trkpt lat="45.2533" lon="6.78272">
        <ele>1538.4</ele>
        <time>2016-10-29T14:34:53Z</time>
      </trkpt>
      <trkpt lat="45.25334" lon="6.7826">
        <ele>1539.2</ele>
        <time>2016-10-29T14:34:59Z</time>
      </trkpt>
      <trkpt lat="45.25338" lon="6.78247">
        <ele>1540.2</ele>
        <time>2016-10-29T14:35:05Z</time>
      </trkpt>
      <trkpt lat="45.25342" lon="6.78234">
        <ele>1541.1</ele>
        <time>2016-10-29T14:35:11Z</time>
      </trkpt>
      <trkpt lat="45.25348" lon="6.78221">
        <ele>1542.1</ele>
        <time>2016-10-29T14:35:17Z</time>
      </trkpt>
      <trkpt lat="45.25353" lon="6.7821">
        <ele>1542.9</ele>
        <time>2016-10-29T14:35:23Z</time>
      </trkpt>
      <trkpt lat="45.25355" lon="6.78197">
        <ele>1543.6</ele>
        <time>2016-10-29T14:35:29Z</time>
      </trkpt>
      <trkpt lat="45.25357" lon="6.78184">
        <ele>1544.1</ele>
        <time>2016-10-29T14:35:35Z</time>
      </trkpt>
      <trkpt lat="45.25366" lon="6.78184">
        <ele>1544.8</ele>
        <time>2016-10-29T14:35:42Z</time>
      </trkpt>
      <trkpt lat="45.25368" lon="6.78198">
        <ele>1546</ele>
        <time>2016-10-29T14:35:49Z</time>
      </trkpt>
      <trkpt lat="45.25365" lon="6.78212">
        <ele>1546.9</ele>
        <time>2016-10-29T14:35:56Z</time>
      </trkpt>
      <trkpt lat="45.25361" lon="6.78224">
        <ele>1548.2</ele>
        <time>2016-10-29T14:36:04Z</time>
      </trkpt>
      <trkpt lat="45.25356" lon="6.78236">
        <ele>1549.1</ele>
        <time>2016-10-29T14:36:11Z</time>
      </trkpt>
      <trkpt lat="45.25352" lon="6.78248">
        <ele>1550.1</ele>
        <time>2016-10-29T14:36:17Z</time>
      </trkpt>
      <trkpt lat="45.2535" lon="6.78262">
        <ele>1551.3</ele>
        <time>2016-10-29T14:36:24Z</time>
      </trkpt>
      <trkpt lat="45.25348" lon="6.78276">
        <ele>1552.4</ele>
        <time>2016-10-29T14:36:31Z</time>
      </trkpt>
      <trkpt lat="45.25351" lon="6.7829">
        <ele>1553.6</ele>
        <time>2016-10-29T14:36:38Z</time>
      </trkpt>
      <trkpt lat="45.25356" lon="6.78301">
        <ele>1554.4</ele>
        <time>2016-10-29T14:36:45Z</time>
      </trkpt>
      <trkpt lat="45.25363" lon="6.7831">
        <ele>1555.5</ele>
        <time>2016-10-29T14:36:52Z</time>
      </trkpt>
      <trkpt lat="45.25372" lon="6.78316">
        <ele>1556.6</ele>
        <time>2016-10-29T14:37:00Z</time>
      </trkpt>
      <trkpt lat="45.25382" lon="6.78322">
        <ele>1557.6</ele>
        <time>2016-10-29T14:37:08Z</time>
      </trkpt>
      <trkpt lat="45.2539" lon="6.78327">
        <ele>1558.4</ele>
        <time>2016-10-29T14:37:15Z</time>
      </trkpt>
      <trkpt lat="45.25398" lon="6.78333">
        <ele>1559.7</ele>
        <time>2016-10-29T14:37:22Z</time>
      </trkpt>
      <trkpt lat="45.25408" lon="6.78334">
        <ele>1561</ele>
        <time>2016-10-29T14:37:30Z</time>
      </trkpt>
      <trkpt lat="45.25417" lon="6.78328">
        <ele>1562.4</ele>
        <time>2016-10-29T14:37:38Z</time>
      </trkpt>
      <trkpt lat="45.25426" lon="6.78324">
        <ele>1563.5</ele>
        <time>2016-10-29T14:37:45Z</time>
      </trkpt>
      <trkpt lat="45.25435" lon="6.7832">
        <ele>1564.6</ele>
        <time>2016-10-29T14:37:53Z</time>
      </trkpt>
      <trkpt lat="45.25444" lon="6.78322">
        <ele>1565.7</ele>
        <time>2016-10-29T14:38:00Z</time>
      </trkpt>
      <trkpt lat="45.25452" lon="6.78332">
        <ele>1566.6</ele>
        <time>2016-10-29T14:38:07Z</time>
      </trkpt>
      <trkpt lat="45.25457" lon="6.78343">
        <ele>1567.6</ele>
        <time>2016-10-29T14:38:15Z</time>
      </trkpt>
      <trkpt lat="45.25464" lon="6.78352">
        <ele>1568.7</ele>
        <time>2016-10-29T14:38:22Z</time>
      </trkpt>
      <trkpt lat="45.2547" lon="6.78362">
        <ele>1569.7</ele>
        <time>2016-10-29T14:38:29Z</time>
      </trkpt>
      <trkpt lat="45.25479" lon="6.78368">
        <ele>1570.4</ele>
        <time>2016-10-29T14:38:36Z</time>
      </trkpt>
      <trkpt lat="45.25488" lon="6.78373">
        <ele>1571.4</ele>
        <time>2016-10-29T14:38:43Z</time>
      </trkpt>
      <trkpt lat="45.25496" lon="6.78381">
        <ele>1572.5</ele>
        <time>2016-10-29T14:38:50Z</time>
      </trkpt>
      <trkpt lat="45.25503" lon="6.78391">
        <ele>1573.2</ele>
        <time>2016-10-29T14:38:57Z</time>
      </trkpt>
      <trkpt lat="45.25511" lon="6.78399">
        <ele>1574.6</ele>
        <time>2016-10-29T14:39:05Z</time>
      </trkpt>
      <trkpt lat="45.25515" lon="6.78387">
        <ele>1576.2</ele>
        <time>2016-10-29T14:39:14Z</time>
      </trkpt>
      <trkpt lat="45.25508" lon="6.78378">
        <ele>1577.2</ele>
        <time>2016-10-29T14:39:22Z</time>
      </trkpt>
      <trkpt lat="45.25501" lon="6.78368">
        <ele>1578.3</ele>
        <time>2016-10-29T14:39:31Z</time>
      </trkpt>
      <trkpt lat="45.25495" lon="6.78357">
        <ele>1579.1</ele>
        <time>2016-10-29T14:39:39Z</time>
      </trkpt>
      <trkpt lat="45.25488" lon="6.78349">
        <ele>1580</ele>
        <time>2016-10-29T14:39:46Z</time>
      </trkpt>
      <trkpt lat="45.25482" lon="6.78337">
        <ele>1581</ele>
        <time>2016-10-29T14:39:52Z</time>
      </trkpt>
      <trkpt lat="45.25484" lon="6.78323">
        <ele>1582.1</ele>
        <time>2016-10-29T14:39:59Z</time>
      </trkpt>
      <trkpt lat="45.25484" lon="6.78308">
        <ele>1583</ele>
        <time>2016-10-29T14:40:06Z</time>
      </trkpt>
      <trkpt lat="45.25483" lon="6.78293">
        <ele>1583.6</ele>
        <time>2016-10-29T14:40:11Z</time>
      </trkpt>
      <trkpt lat="45.25479" lon="6.78282">
        <ele>1584.2</ele>
        <time>2016-10-29T14:40:16Z</time>
      </trkpt>
      <trkpt lat="45.25472" lon="6.78271">
        <ele>1585.1</ele>
        <time>2016-10-29T14:40:21Z</time>
      </trkpt>
      <trkpt lat="45.25469" lon="6.78257">
        <ele>1585.9</ele>
        <time>2016-10-29T14:40:27Z</time>
      </trkpt>
      <trkpt lat="45.25479" lon="6.78256">
        <ele>1586.8</ele>
        <time>2016-10-29T14:40:34Z</time>
      </trkpt>
      <trkpt lat="45.25484" lon="6.78267">
        <ele>1587.7</ele>
        <time>2016-10-29T14:40:41Z</time>
      </trkpt>
      <trkpt lat="45.25488" lon="6.78279">
        <ele>1588.3</ele>
        <time>2016-10-29T14:40:48Z</time>
      </trkpt>
      <trkpt lat="45.25492" lon="6.78292">
        <ele>1589.1</ele>
        <time>2016-10-29T14:40:55Z</time>
      </trkpt>
      <trkpt lat="45.25495" lon="6.78305">
        <ele>1589.9</ele>
        <time>2016-10-29T14:41:02Z</time>
      </trkpt>
      <trkpt lat="45.25498" lon="6.78317">
        <ele>1591</ele>
        <time>2016-10-29T14:41:09Z</time>
      </trkpt>
      <trkpt lat="45.25504" lon="6.78328">
        <ele>1592.2</ele>
        <time>2016-10-29T14:41:16Z</time>
      </trkpt>
      <trkpt lat="45.25512" lon="6.78334">
        <ele>1593.3</ele>
        <time>2016-10-29T14:41:23Z</time>
      </trkpt>
      <trkpt lat="45.25521" lon="6.78342">
        <ele>1594.3</ele>
        <time>2016-10-29T14:41:31Z</time>
      </trkpt>
      <trkpt lat="45.25529" lon="6.78348">
        <ele>1595.2</ele>
        <time>2016-10-29T14:41:38Z</time>
      </trkpt>
      <trkpt lat="45.25536" lon="6.78355">
        <ele>1596.3</ele>
        <time>2016-10-29T14:41:46Z</time>
      </trkpt>
      <trkpt lat="45.25545" lon="6.7836">
        <ele>1597.5</ele>
        <time>2016-10-29T14:41:54Z</time>
      </trkpt>
      <trkpt lat="45.25554" lon="6.78365">
        <ele>1598.6</ele>
        <time>2016-10-29T14:42:02Z</time>
      </trkpt>
      <trkpt lat="45.25563" lon="6.78372">
        <ele>1599.8</ele>
        <time>2016-10-29T14:42:10Z</time>
      </trkpt>
      <trkpt lat="45.25571" lon="6.78379">
        <ele>1601.1</ele>
        <time>2016-10-29T14:42:17Z</time>
      </trkpt>
      <trkpt lat="45.2558" lon="6.78387">
        <ele>1602.1</ele>
        <time>2016-10-29T14:42:25Z</time>
      </trkpt>
      <trkpt lat="45.25588" lon="6.78393">
        <ele>1603.3</ele>
        <time>2016-10-29T14:42:33Z</time>
      </trkpt>
      <trkpt lat="45.25598" lon="6.78395">
        <ele>1604.4</ele>
        <time>2016-10-29T14:42:41Z</time>
      </trkpt>
      <trkpt lat="45.25607" lon="6.7839">
        <ele>1605.5</ele>
        <time>2016-10-29T14:42:49Z</time>
      </trkpt>
      <trkpt lat="45.25609" lon="6.78377">
        <ele>1606.6</ele>
        <time>2016-10-29T14:42:57Z</time>
      </trkpt>
      <trkpt lat="45.25603" lon="6.78366">
        <ele>1608.1</ele>
        <time>2016-10-29T14:43:06Z</time>
      </trkpt>
      <trkpt lat="45.25593" lon="6.78364">
        <ele>1609.1</ele>
        <time>2016-10-29T14:43:15Z</time>
      </trkpt>
      <trkpt lat="45.25585" lon="6.78357">
        <ele>1610.2</ele>
        <time>2016-10-29T14:43:23Z</time>
      </trkpt>
      <trkpt lat="45.25578" lon="6.78349">
        <ele>1611.2</ele>
        <time>2016-10-29T14:43:30Z</time>
      </trkpt>
      <trkpt lat="45.2557" lon="6.78342">
        <ele>1612.4</ele>
        <time>2016-10-29T14:43:38Z</time>
      </trkpt>
      <trkpt lat="45.25562" lon="6.78335">
        <ele>1614.1</ele>
        <time>2016-10-29T14:43:45Z</time>
      </trkpt>
      <trkpt lat="45.25556" lon="6.78323">
        <ele>1615.7</ele>
        <time>2016-10-29T14:43:53Z</time>
      </trkpt>
      <trkpt lat="45.25551" lon="6.78311">
        <ele>1616.8</ele>
        <time>2016-10-29T14:44:00Z</time>
      </trkpt>
      <trkpt lat="45.2555" lon="6.78297">
        <ele>1617.6</ele>
        <time>2016-10-29T14:44:08Z</time>
      </trkpt>
      <trkpt lat="45.25546" lon="6.78283">
        <ele>1618.5</ele>
        <time>2016-10-29T14:44:16Z</time>
      </trkpt>
      <trkpt lat="45.25543" lon="6.7827">
        <ele>1619.7</ele>
        <time>2016-10-29T14:44:23Z</time>
      </trkpt>
      <trkpt lat="45.25542" lon="6.78257">
        <ele>1620.7</ele>
        <time>2016-10-29T14:44:30Z</time>
      </trkpt>
      <trkpt lat="45.25542" lon="6.78243">
        <ele>1621.7</ele>
        <time>2016-10-29T14:44:37Z</time>
      </trkpt>
      <trkpt lat="45.25542" lon="6.78229">
        <ele>1622.7</ele>
        <time>2016-10-29T14:44:44Z</time>
      </trkpt>
      <trkpt lat="45.25538" lon="6.78216">
        <ele>1623.5</ele>
        <time>2016-10-29T14:44:50Z</time>
      </trkpt>
      <trkpt lat="45.25535" lon="6.78202">
        <ele>1624.6</ele>
        <time>2016-10-29T14:44:57Z</time>
      </trkpt>
      <trkpt lat="45.2553" lon="6.7819">
        <ele>1625.5</ele>
        <time>2016-10-29T14:45:04Z</time>
      </trkpt>
      <trkpt lat="45.25523" lon="6.7818">
        <ele>1626.6</ele>
        <time>2016-10-29T14:45:11Z</time>
      </trkpt>
      <trkpt lat="45.25518" lon="6.78169">
        <ele>1627.7</ele>
        <time>2016-10-29T14:45:18Z</time>
      </trkpt>
      <trkpt lat="45.25525" lon="6.78161">
        <ele>1628.8</ele>
        <time>2016-10-29T14:45:26Z</time>
      </trkpt>
      <trkpt lat="45.25533" lon="6.78169">
        <ele>1629.8</ele>
        <time>2016-10-29T14:45:34Z</time>
      </trkpt>
      <trkpt lat="45.2554" lon="6.78178">
        <ele>1631</ele>
        <time>2016-10-29T14:45:43Z</time>
      </trkpt>
      <trkpt lat="45.25548" lon="6.78185">
        <ele>1632.4</ele>
        <time>2016-10-29T14:45:51Z</time>
      </trkpt>
      <trkpt lat="45.25555" lon="6.78196">
        <ele>1633.6</ele>
        <time>2016-10-29T14:46:00Z</time>
      </trkpt>
      <trkpt lat="45.25561" lon="6.78205">
        <ele>1635.2</ele>
        <time>2016-10-29T14:46:08Z</time>
      </trkpt>
      <trkpt lat="45.25567" lon="6.78216">
        <ele>1636.8</ele>
        <time>2016-10-29T14:46:16Z</time>
      </trkpt>
      <trkpt lat="45.25575" lon="6.78226">
        <ele>1638</ele>
        <time>2016-10-29T14:46:24Z</time>
      </trkpt>
      <trkpt lat="45.25583" lon="6.78233">
        <ele>1639.8</ele>
        <time>2016-10-29T14:46:32Z</time>
      </trkpt>
      <trkpt lat="45.25593" lon="6.78236">
        <ele>1641.1</ele>
        <time>2016-10-29T14:46:40Z</time>
      </trkpt>
      <trkpt lat="45.25602" lon="6.7824">
        <ele>1642.1</ele>
        <time>2016-10-29T14:46:49Z</time>
      </trkpt>
      <trkpt lat="45.25611" lon="6.78245">
        <ele>1643.3</ele>
        <time>2016-10-29T14:46:57Z</time>
      </trkpt>
      <trkpt lat="45.25621" lon="6.7825">
        <ele>1644.6</ele>
        <time>2016-10-29T14:47:05Z</time>
      </trkpt>
      <trkpt lat="45.2563" lon="6.78254">
        <ele>1645.6</ele>
        <time>2016-10-29T14:47:14Z</time>
      </trkpt>
      <trkpt lat="45.2564" lon="6.78254">
        <ele>1646.5</ele>
        <time>2016-10-29T14:47:22Z</time>
      </trkpt>
      <trkpt lat="45.25649" lon="6.7825">
        <ele>1647.8</ele>
        <time>2016-10-29T14:47:30Z</time>
      </trkpt>
      <trkpt lat="45.25657" lon="6.78246">
        <ele>1648.8</ele>
        <time>2016-10-29T14:47:36Z</time>
      </trkpt>
      <trkpt lat="45.25666" lon="6.7824">
        <ele>1649.8</ele>
        <time>2016-10-29T14:47:43Z</time>
      </trkpt>
      <trkpt lat="45.25675" lon="6.7824">
        <ele>1650.7</ele>
        <time>2016-10-29T14:47:49Z</time>
      </trkpt>
      <trkpt lat="45.25683" lon="6.78248">
        <ele>1651.5</ele>
        <time>2016-10-29T14:47:55Z</time>
      </trkpt>
      <trkpt lat="45.25689" lon="6.78259">
        <ele>1652.4</ele>
        <time>2016-10-29T14:48:01Z</time>
      </trkpt>
      <trkpt lat="45.25697" lon="6.78268">
        <ele>1653.2</ele>
        <time>2016-10-29T14:48:08Z</time>
      </trkpt>
      <trkpt lat="45.25706" lon="6.78274">
        <ele>1654.3</ele>
        <time>2016-10-29T14:48:16Z</time>
      </trkpt>
      <trkpt lat="45.25715" lon="6.78281">
        <ele>1656.2</ele>
        <time>2016-10-29T14:48:25Z</time>
      </trkpt>
      <trkpt lat="45.25723" lon="6.78289">
        <ele>1657.4</ele>
        <time>2016-10-29T14:48:33Z</time>
      </trkpt>
      <trkpt lat="45.25729" lon="6.78299">
        <ele>1658.4</ele>
        <time>2016-10-29T14:48:40Z</time>
      </trkpt>
      <trkpt lat="45.25734" lon="6.78311">
        <ele>1659.4</ele>
        <time>2016-10-29T14:48:48Z</time>
      </trkpt>
      <trkpt lat="45.2574" lon="6.7832">
        <ele>1660.5</ele>
        <time>2016-10-29T14:48:55Z</time>
      </trkpt>
      <trkpt lat="45.25747" lon="6.78331">
        <ele>1662</ele>
        <time>2016-10-29T14:49:03Z</time>
      </trkpt>
      <trkpt lat="45.25756" lon="6.78337">
        <ele>1663.2</ele>
        <time>2016-10-29T14:49:11Z</time>
      </trkpt>
      <trkpt lat="45.25766" lon="6.78336">
        <ele>1667</ele>
        <time>2016-10-29T14:50:28Z</time>
      </trkpt>
      <trkpt lat="45.25774" lon="6.78331">
        <ele>1666.9</ele>
        <time>2016-10-29T14:50:35Z</time>
      </trkpt>
      <trkpt lat="45.25783" lon="6.78328">
        <ele>1667.1</ele>
        <time>2016-10-29T14:50:41Z</time>
      </trkpt>
      <trkpt lat="45.25793" lon="6.78322">
        <ele>1667.3</ele>
        <time>2016-10-29T14:50:48Z</time>
      </trkpt>
      <trkpt lat="45.25802" lon="6.78318">
        <ele>1668.9</ele>
        <time>2016-10-29T14:51:00Z</time>
      </trkpt>
      <trkpt lat="45.25811" lon="6.78322">
        <ele>1670.2</ele>
        <time>2016-10-29T14:51:09Z</time>
      </trkpt>
      <trkpt lat="45.25819" lon="6.78329">
        <ele>1671.3</ele>
        <time>2016-10-29T14:51:16Z</time>
      </trkpt>
      <trkpt lat="45.25828" lon="6.78337">
        <ele>1672.4</ele>
        <time>2016-10-29T14:51:23Z</time>
      </trkpt>
      <trkpt lat="45.25836" lon="6.78345">
        <ele>1673.1</ele>
        <time>2016-10-29T14:51:29Z</time>
      </trkpt>
      <trkpt lat="45.25841" lon="6.78356">
        <ele>1673.7</ele>
        <time>2016-10-29T14:51:35Z</time>
      </trkpt>
      <trkpt lat="45.25847" lon="6.78365">
        <ele>1674.5</ele>
        <time>2016-10-29T14:51:42Z</time>
      </trkpt>
      <trkpt lat="45.25853" lon="6.78377">
        <ele>1675.3</ele>
        <time>2016-10-29T14:51:50Z</time>
      </trkpt>
      <trkpt lat="45.25858" lon="6.78389">
        <ele>1676.2</ele>
        <time>2016-10-29T14:51:56Z</time>
      </trkpt>
      <trkpt lat="45.25861" lon="6.78401">
        <ele>1677.7</ele>
        <time>2016-10-29T14:52:03Z</time>
      </trkpt>
      <trkpt lat="45.25861" lon="6.78414">
        <ele>1679</ele>
        <time>2016-10-29T14:52:10Z</time>
      </trkpt>
      <trkpt lat="45.25859" lon="6.78427">
        <ele>1680.2</ele>
        <time>2016-10-29T14:52:17Z</time>
      </trkpt>
      <trkpt lat="45.2586" lon="6.78439">
        <ele>1681.1</ele>
        <time>2016-10-29T14:52:23Z</time>
      </trkpt>
      <trkpt lat="45.2586" lon="6.78452">
        <ele>1681.9</ele>
        <time>2016-10-29T14:52:29Z</time>
      </trkpt>
      <trkpt lat="45.25863" lon="6.78467">
        <ele>1682.9</ele>
        <time>2016-10-29T14:52:36Z</time>
      </trkpt>
      <trkpt lat="45.25864" lon="6.7848">
        <ele>1683.6</ele>
        <time>2016-10-29T14:52:43Z</time>
      </trkpt>
      <trkpt lat="45.25872" lon="6.78488">
        <ele>1684.7</ele>
        <time>2016-10-29T14:52:52Z</time>
      </trkpt>
      <trkpt lat="45.25874" lon="6.78475">
        <ele>1685.7</ele>
        <time>2016-10-29T14:52:59Z</time>
      </trkpt>
      <trkpt lat="45.25872" lon="6.7846">
        <ele>1686.9</ele>
        <time>2016-10-29T14:53:06Z</time>
      </trkpt>
      <trkpt lat="45.25872" lon="6.78446">
        <ele>1688.2</ele>
        <time>2016-10-29T14:53:13Z</time>
      </trkpt>
      <trkpt lat="45.25875" lon="6.78434">
        <ele>1689</ele>
        <time>2016-10-29T14:53:19Z</time>
      </trkpt>
      <trkpt lat="45.2588" lon="6.78423">
        <ele>1689.8</ele>
        <time>2016-10-29T14:53:25Z</time>
      </trkpt>
      <trkpt lat="45.25888" lon="6.78415">
        <ele>1690.7</ele>
        <time>2016-10-29T14:53:31Z</time>
      </trkpt>
      <trkpt lat="45.25896" lon="6.78408">
        <ele>1691.6</ele>
        <time>2016-10-29T14:53:37Z</time>
      </trkpt>
      <trkpt lat="45.25901" lon="6.78397">
        <ele>1692.4</ele>
        <time>2016-10-29T14:53:44Z</time>
      </trkpt>
      <trkpt lat="45.25905" lon="6.78384">
        <ele>1693.5</ele>
        <time>2016-10-29T14:53:51Z</time>
      </trkpt>
      <trkpt lat="45.25911" lon="6.78374">
        <ele>1694.2</ele>
        <time>2016-10-29T14:53:57Z</time>
      </trkpt>
      <trkpt lat="45.25919" lon="6.78369">
        <ele>1695.3</ele>
        <time>2016-10-29T14:54:04Z</time>
      </trkpt>
      <trkpt lat="45.25926" lon="6.78378">
        <ele>1696.7</ele>
        <time>2016-10-29T14:54:12Z</time>
      </trkpt>
      <trkpt lat="45.25925" lon="6.78392">
        <ele>1697.8</ele>
        <time>2016-10-29T14:54:19Z</time>
      </trkpt>
      <trkpt lat="45.25924" lon="6.78406">
        <ele>1698.7</ele>
        <time>2016-10-29T14:54:27Z</time>
      </trkpt>
      <trkpt lat="45.25919" lon="6.78418">
        <ele>1699.8</ele>
        <time>2016-10-29T14:54:34Z</time>
      </trkpt>
      <trkpt lat="45.25912" lon="6.78429">
        <ele>1701.1</ele>
        <time>2016-10-29T14:54:40Z</time>
      </trkpt>
      <trkpt lat="45.25911" lon="6.78442">
        <ele>1702.2</ele>
        <time>2016-10-29T14:54:46Z</time>
      </trkpt>
      <trkpt lat="45.25914" lon="6.78455">
        <ele>1703.1</ele>
        <time>2016-10-29T14:54:52Z</time>
      </trkpt>
      <trkpt lat="45.25918" lon="6.78467">
        <ele>1704.4</ele>
        <time>2016-10-29T14:55:00Z</time>
      </trkpt>
      <trkpt lat="45.25922" lon="6.7848">
        <ele>1705.1</ele>
        <time>2016-10-29T14:55:07Z</time>
      </trkpt>
      <trkpt lat="45.25925" lon="6.78493">
        <ele>1705.5</ele>
        <time>2016-10-29T14:55:13Z</time>
      </trkpt>
      <trkpt lat="45.25927" lon="6.78506">
        <ele>1706</ele>
        <time>2016-10-29T14:55:18Z</time>
      </trkpt>
      <trkpt lat="45.2593" lon="6.78518">
        <ele>1706.4</ele>
        <time>2016-10-29T14:55:23Z</time>
      </trkpt>
      <trkpt lat="45.25933" lon="6.78531">
        <ele>1707.2</ele>
        <time>2016-10-29T14:55:29Z</time>
      </trkpt>
      <trkpt lat="45.25938" lon="6.78543">
        <ele>1707.9</ele>
        <time>2016-10-29T14:55:35Z</time>
      </trkpt>
      <trkpt lat="45.25941" lon="6.78558">
        <ele>1708.4</ele>
        <time>2016-10-29T14:55:41Z</time>
      </trkpt>
      <trkpt lat="45.25944" lon="6.78572">
        <ele>1709</ele>
        <time>2016-10-29T14:55:47Z</time>
      </trkpt>
      <trkpt lat="45.25945" lon="6.78587">
        <ele>1709.5</ele>
        <time>2016-10-29T14:55:52Z</time>
      </trkpt>
      <trkpt lat="45.2595" lon="6.78601">
        <ele>1710</ele>
        <time>2016-10-29T14:55:57Z</time>
      </trkpt>
      <trkpt lat="45.25958" lon="6.78609">
        <ele>1710.5</ele>
        <time>2016-10-29T14:56:02Z</time>
      </trkpt>
      <trkpt lat="45.25967" lon="6.78617">
        <ele>1710.8</ele>
        <time>2016-10-29T14:56:07Z</time>
      </trkpt>
      <trkpt lat="45.25976" lon="6.78623">
        <ele>1711.5</ele>
        <time>2016-10-29T14:56:13Z</time>
      </trkpt>
      <trkpt lat="45.25985" lon="6.7863">
        <ele>1712.1</ele>
        <time>2016-10-29T14:56:20Z</time>
      </trkpt>
      <trkpt lat="45.25993" lon="6.78638">
        <ele>1712.8</ele>
        <time>2016-10-29T14:56:27Z</time>
      </trkpt>
      <trkpt lat="45.26003" lon="6.78642">
        <ele>1713.4</ele>
        <time>2016-10-29T14:56:33Z</time>
      </trkpt>
      <trkpt lat="45.26012" lon="6.78645">
        <ele>1713.9</ele>
        <time>2016-10-29T14:56:39Z</time>
      </trkpt>
      <trkpt lat="45.26022" lon="6.78646">
        <ele>1715</ele>
        <time>2016-10-29T14:56:45Z</time>
      </trkpt>
      <trkpt lat="45.26031" lon="6.78648">
        <ele>1716.1</ele>
        <time>2016-10-29T14:56:52Z</time>
      </trkpt>
      <trkpt lat="45.26041" lon="6.7865">
        <ele>1717.3</ele>
        <time>2016-10-29T14:56:58Z</time>
      </trkpt>
      <trkpt lat="45.2605" lon="6.7865">
        <ele>1718.3</ele>
        <time>2016-10-29T14:57:04Z</time>
      </trkpt>
      <trkpt lat="45.2606" lon="6.78654">
        <ele>1719.9</ele>
        <time>2016-10-29T14:57:12Z</time>
      </trkpt>
      <trkpt lat="45.26069" lon="6.7866">
        <ele>1720.7</ele>
        <time>2016-10-29T14:57:18Z</time>
      </trkpt>
      <trkpt lat="45.26078" lon="6.78667">
        <ele>1721.5</ele>
        <time>2016-10-29T14:57:24Z</time>
      </trkpt>
      <trkpt lat="45.26087" lon="6.78668">
        <ele>1722.4</ele>
        <time>2016-10-29T14:57:30Z</time>
      </trkpt>
      <trkpt lat="45.26087" lon="6.78655">
        <ele>1723.6</ele>
        <time>2016-10-29T14:57:39Z</time>
      </trkpt>
      <trkpt lat="45.26079" lon="6.78649">
        <ele>1724.5</ele>
        <time>2016-10-29T14:57:46Z</time>
      </trkpt>
      <trkpt lat="45.26071" lon="6.78641">
        <ele>1725.6</ele>
        <time>2016-10-29T14:57:53Z</time>
      </trkpt>
      <trkpt lat="45.26065" lon="6.78631">
        <ele>1726.6</ele>
        <time>2016-10-29T14:58:00Z</time>
      </trkpt>
      <trkpt lat="45.26058" lon="6.78621">
        <ele>1727.6</ele>
        <time>2016-10-29T14:58:08Z</time>
      </trkpt>
      <trkpt lat="45.26049" lon="6.78616">
        <ele>1728.7</ele>
        <time>2016-10-29T14:58:16Z</time>
      </trkpt>
      <trkpt lat="45.2604" lon="6.78612">
        <ele>1729.8</ele>
        <time>2016-10-29T14:58:23Z</time>
      </trkpt>
      <trkpt lat="45.26031" lon="6.78607">
        <ele>1731.4</ele>
        <time>2016-10-29T14:58:31Z</time>
      </trkpt>
      <trkpt lat="45.26022" lon="6.786">
        <ele>1732.9</ele>
        <time>2016-10-29T14:58:39Z</time>
      </trkpt>
      <trkpt lat="45.26013" lon="6.78594">
        <ele>1733.9</ele>
        <time>2016-10-29T14:58:46Z</time>
      </trkpt>
      <trkpt lat="45.26005" lon="6.78588">
        <ele>1735</ele>
        <time>2016-10-29T14:58:52Z</time>
      </trkpt>
      <trkpt lat="45.25998" lon="6.78578">
        <ele>1735.9</ele>
        <time>2016-10-29T14:58:59Z</time>
      </trkpt>
      <trkpt lat="45.25995" lon="6.78564">
        <ele>1736.8</ele>
        <time>2016-10-29T14:59:06Z</time>
      </trkpt>
      <trkpt lat="45.25999" lon="6.78551">
        <ele>1737.4</ele>
        <time>2016-10-29T14:59:12Z</time>
      </trkpt>
      <trkpt lat="45.26006" lon="6.78542">
        <ele>1738.1</ele>
        <time>2016-10-29T14:59:18Z</time>
      </trkpt>
      <trkpt lat="45.26016" lon="6.78539">
        <ele>1738.7</ele>
        <time>2016-10-29T14:59:24Z</time>
      </trkpt>
      <trkpt lat="45.26027" lon="6.78542">
        <ele>1739.3</ele>
        <time>2016-10-29T14:59:29Z</time>
      </trkpt>
      <trkpt lat="45.26037" lon="6.78546">
        <ele>1739.8</ele>
        <time>2016-10-29T14:59:34Z</time>
      </trkpt>
      <trkpt lat="45.26047" lon="6.78549">
        <ele>1740.1</ele>
        <time>2016-10-29T14:59:39Z</time>
      </trkpt>
      <trkpt lat="45.26056" lon="6.78557">
        <ele>1740.6</ele>
        <time>2016-10-29T14:59:46Z</time>
      </trkpt>
      <trkpt lat="45.26063" lon="6.78568">
        <ele>1741.2</ele>
        <time>2016-10-29T14:59:51Z</time>
      </trkpt>
      <trkpt lat="45.2607" lon="6.78578">
        <ele>1741.6</ele>
        <time>2016-10-29T14:59:55Z</time>
      </trkpt>
      <trkpt lat="45.26077" lon="6.78587">
        <ele>1742.2</ele>
        <time>2016-10-29T14:59:59Z</time>
      </trkpt>
      <trkpt lat="45.26082" lon="6.78598">
        <ele>1742.8</ele>
        <time>2016-10-29T15:00:04Z</time>
      </trkpt>
      <trkpt lat="45.2609" lon="6.78605">
        <ele>1743.5</ele>
        <time>2016-10-29T15:00:09Z</time>
      </trkpt>
      <trkpt lat="45.26101" lon="6.78607">
        <ele>1744.3</ele>
        <time>2016-10-29T15:00:15Z</time>
      </trkpt>
      <trkpt lat="45.2611" lon="6.78607">
        <ele>1745.2</ele>
        <time>2016-10-29T15:00:21Z</time>
      </trkpt>
      <trkpt lat="45.2612" lon="6.78606">
        <ele>1745.9</ele>
        <time>2016-10-29T15:00:27Z</time>
      </trkpt>
      <trkpt lat="45.2613" lon="6.78609">
        <ele>1746.7</ele>
        <time>2016-10-29T15:00:33Z</time>
      </trkpt>
      <trkpt lat="45.2614" lon="6.78615">
        <ele>1747.8</ele>
        <time>2016-10-29T15:00:39Z</time>
      </trkpt>
      <trkpt lat="45.26149" lon="6.78622">
        <ele>1748.7</ele>
        <time>2016-10-29T15:00:45Z</time>
      </trkpt>
      <trkpt lat="45.26158" lon="6.78627">
        <ele>1749.6</ele>
        <time>2016-10-29T15:00:50Z</time>
      </trkpt>
      <trkpt lat="45.26166" lon="6.78637">
        <ele>1750.5</ele>
        <time>2016-10-29T15:00:56Z</time>
      </trkpt>
      <trkpt lat="45.26174" lon="6.78646">
        <ele>1751.4</ele>
        <time>2016-10-29T15:01:02Z</time>
      </trkpt>
      <trkpt lat="45.26182" lon="6.78654">
        <ele>1752.4</ele>
        <time>2016-10-29T15:01:08Z</time>
      </trkpt>
      <trkpt lat="45.26191" lon="6.7866">
        <ele>1753.2</ele>
        <time>2016-10-29T15:01:14Z</time>
      </trkpt>
      <trkpt lat="45.26198" lon="6.78669">
        <ele>1754.4</ele>
        <time>2016-10-29T15:01:20Z</time>
      </trkpt>
      <trkpt lat="45.26206" lon="6.78677">
        <ele>1755.2</ele>
        <time>2016-10-29T15:01:26Z</time>
      </trkpt>
      <trkpt lat="45.26214" lon="6.78683">
        <ele>1755.9</ele>
        <time>2016-10-29T15:01:32Z</time>
      </trkpt>
      <trkpt lat="45.26224" lon="6.78688">
        <ele>1756.4</ele>
        <time>2016-10-29T15:01:37Z</time>
      </trkpt>
      <trkpt lat="45.26233" lon="6.78692">
        <ele>1756.9</ele>
        <time>2016-10-29T15:01:43Z</time>
      </trkpt>
      <trkpt lat="45.26242" lon="6.78696">
        <ele>1757.7</ele>
        <time>2016-10-29T15:01:50Z</time>
      </trkpt>
      <trkpt lat="45.26252" lon="6.78698">
        <ele>1758.7</ele>
        <time>2016-10-29T15:01:57Z</time>
      </trkpt>
      <trkpt lat="45.26261" lon="6.78699">
        <ele>1759.7</ele>
        <time>2016-10-29T15:02:04Z</time>
      </trkpt>
      <trkpt lat="45.2627" lon="6.78704">
        <ele>1760.2</ele>
        <time>2016-10-29T15:02:10Z</time>
      </trkpt>
      <trkpt lat="45.2628" lon="6.78707">
        <ele>1760.7</ele>
        <time>2016-10-29T15:02:16Z</time>
      </trkpt>
      <trkpt lat="45.2629" lon="6.78708">
        <ele>1761.3</ele>
        <time>2016-10-29T15:02:21Z</time>
      </trkpt>
      <trkpt lat="45.263" lon="6.7871">
        <ele>1761.7</ele>
        <time>2016-10-29T15:02:26Z</time>
      </trkpt>
      <trkpt lat="45.26309" lon="6.7871">
        <ele>1762.1</ele>
        <time>2016-10-29T15:02:31Z</time>
      </trkpt>
      <trkpt lat="45.26319" lon="6.78711">
        <ele>1762.8</ele>
        <time>2016-10-29T15:02:37Z</time>
      </trkpt>
      <trkpt lat="45.26328" lon="6.78712">
        <ele>1763.5</ele>
        <time>2016-10-29T15:02:42Z</time>
      </trkpt>
      <trkpt lat="45.26338" lon="6.78711">
        <ele>1764.2</ele>
        <time>2016-10-29T15:02:47Z</time>
      </trkpt>
      <trkpt lat="45.26347" lon="6.78712">
        <ele>1765</ele>
        <time>2016-10-29T15:02:52Z</time>
      </trkpt>
      <trkpt lat="45.26356" lon="6.78714">
        <ele>1765.5</ele>
        <time>2016-10-29T15:02:56Z</time>
      </trkpt>
      <trkpt lat="45.26363" lon="6.78724">
        <ele>1766.3</ele>
        <time>2016-10-29T15:03:02Z</time>
      </trkpt>
      <trkpt lat="45.26371" lon="6.78733">
        <ele>1766.8</ele>
        <time>2016-10-29T15:03:07Z</time>
      </trkpt>
      <trkpt lat="45.26379" lon="6.78742">
        <ele>1767.2</ele>
        <time>2016-10-29T15:03:12Z</time>
      </trkpt>
      <trkpt lat="45.26388" lon="6.78749">
        <ele>1767.8</ele>
        <time>2016-10-29T15:03:17Z</time>
      </trkpt>
      <trkpt lat="45.26398" lon="6.78754">
        <ele>1768.3</ele>
        <time>2016-10-29T15:03:22Z</time>
      </trkpt>
      <trkpt lat="45.26406" lon="6.78759">
        <ele>1768.8</ele>
        <time>2016-10-29T15:03:27Z</time>
      </trkpt>
      <trkpt lat="45.26416" lon="6.78765">
        <ele>1769.5</ele>
        <time>2016-10-29T15:03:33Z</time>
      </trkpt>
      <trkpt lat="45.26424" lon="6.78772">
        <ele>1770</ele>
        <time>2016-10-29T15:03:38Z</time>
      </trkpt>
      <trkpt lat="45.26433" lon="6.78778">
        <ele>1770.6</ele>
        <time>2016-10-29T15:03:44Z</time>
      </trkpt>
      <trkpt lat="45.26443" lon="6.7878">
        <ele>1771.2</ele>
        <time>2016-10-29T15:03:49Z</time>
      </trkpt>
      <trkpt lat="45.26452" lon="6.78781">
        <ele>1772</ele>
        <time>2016-10-29T15:03:54Z</time>
      </trkpt>
      <trkpt lat="45.26461" lon="6.78785">
        <ele>1772.9</ele>
        <time>2016-10-29T15:04:00Z</time>
      </trkpt>
      <trkpt lat="45.2647" lon="6.78791">
        <ele>1773.8</ele>
        <time>2016-10-29T15:04:05Z</time>
      </trkpt>
      <trkpt lat="45.26481" lon="6.78796">
        <ele>1774.4</ele>
        <time>2016-10-29T15:04:10Z</time>
      </trkpt>
      <trkpt lat="45.2649" lon="6.78801">
        <ele>1775.2</ele>
        <time>2016-10-29T15:04:15Z</time>
      </trkpt>
      <trkpt lat="45.26482" lon="6.78808">
        <ele>1778</ele>
        <time>2016-10-29T15:05:13Z</time>
      </trkpt>
      <trkpt lat="45.26494" lon="6.78811">
        <ele>1778.2</ele>
        <time>2016-10-29T15:05:43Z</time>
      </trkpt>
      <trkpt lat="45.26503" lon="6.78807">
        <ele>1777.5</ele>
        <time>2016-10-29T15:06:45Z</time>
      </trkpt>
      <trkpt lat="45.26512" lon="6.78816">
        <ele>1777.5</ele>
        <time>2016-10-29T15:06:51Z</time>
      </trkpt>
      <trkpt lat="45.2652" lon="6.78823">
        <ele>1777.7</ele>
        <time>2016-10-29T15:06:56Z</time>
      </trkpt>
      <trkpt lat="45.26528" lon="6.78829">
        <ele>1777.8</ele>
        <time>2016-10-29T15:07:01Z</time>
      </trkpt>
      <trkpt lat="45.26537" lon="6.78834">
        <ele>1778</ele>
        <time>2016-10-29T15:07:07Z</time>
      </trkpt>
      <trkpt lat="45.26547" lon="6.78837">
        <ele>1778.6</ele>
        <time>2016-10-29T15:07:14Z</time>
      </trkpt>
      <trkpt lat="45.26557" lon="6.78841">
        <ele>1778.9</ele>
        <time>2016-10-29T15:07:19Z</time>
      </trkpt>
      <trkpt lat="45.26566" lon="6.78847">
        <ele>1779.2</ele>
        <time>2016-10-29T15:07:24Z</time>
      </trkpt>
      <trkpt lat="45.26574" lon="6.78853">
        <ele>1779.5</ele>
        <time>2016-10-29T15:07:29Z</time>
      </trkpt>
      <trkpt lat="45.26583" lon="6.78859">
        <ele>1779.8</ele>
        <time>2016-10-29T15:07:33Z</time>
      </trkpt>
      <trkpt lat="45.26591" lon="6.78864">
        <ele>1779.9</ele>
        <time>2016-10-29T15:07:38Z</time>
      </trkpt>
      <trkpt lat="45.26601" lon="6.78871">
        <ele>1780.2</ele>
        <time>2016-10-29T15:07:43Z</time>
      </trkpt>
      <trkpt lat="45.26609" lon="6.78878">
        <ele>1780.4</ele>
        <time>2016-10-29T15:07:47Z</time>
      </trkpt>
      <trkpt lat="45.26617" lon="6.78886">
        <ele>1780.8</ele>
        <time>2016-10-29T15:07:52Z</time>
      </trkpt>
      <trkpt lat="45.26625" lon="6.78895">
        <ele>1781.2</ele>
        <time>2016-10-29T15:07:57Z</time>
      </trkpt>
      <trkpt lat="45.26636" lon="6.789">
        <ele>1781.6</ele>
        <time>2016-10-29T15:08:02Z</time>
      </trkpt>
      <trkpt lat="45.26646" lon="6.78905">
        <ele>1782.1</ele>
        <time>2016-10-29T15:08:07Z</time>
      </trkpt>
      <trkpt lat="45.26656" lon="6.78908">
        <ele>1782.7</ele>
        <time>2016-10-29T15:08:12Z</time>
      </trkpt>
      <trkpt lat="45.26666" lon="6.78913">
        <ele>1783.1</ele>
        <time>2016-10-29T15:08:17Z</time>
      </trkpt>
      <trkpt lat="45.26677" lon="6.78916">
        <ele>1783.4</ele>
        <time>2016-10-29T15:08:22Z</time>
      </trkpt>
      <trkpt lat="45.26687" lon="6.78917">
        <ele>1783.6</ele>
        <time>2016-10-29T15:08:27Z</time>
      </trkpt>
      <trkpt lat="45.26698" lon="6.78919">
        <ele>1783.9</ele>
        <time>2016-10-29T15:08:32Z</time>
      </trkpt>
      <trkpt lat="45.26707" lon="6.78919">
        <ele>1784.2</ele>
        <time>2016-10-29T15:08:37Z</time>
      </trkpt>
      <trkpt lat="45.26716" lon="6.78924">
        <ele>1784.4</ele>
        <time>2016-10-29T15:08:41Z</time>
      </trkpt>
      <trkpt lat="45.26724" lon="6.78931">
        <ele>1784.6</ele>
        <time>2016-10-29T15:08:46Z</time>
      </trkpt>
      <trkpt lat="45.26733" lon="6.78938">
        <ele>1784.7</ele>
        <time>2016-10-29T15:08:50Z</time>
      </trkpt>
      <trkpt lat="45.26741" lon="6.78945">
        <ele>1785</ele>
        <time>2016-10-29T15:08:54Z</time>
      </trkpt>
      <trkpt lat="45.2675" lon="6.78953">
        <ele>1785.5</ele>
        <time>2016-10-29T15:08:59Z</time>
      </trkpt>
      <trkpt lat="45.26758" lon="6.78961">
        <ele>1785.7</ele>
        <time>2016-10-29T15:09:03Z</time>
      </trkpt>
      <trkpt lat="45.26767" lon="6.78968">
        <ele>1786</ele>
        <time>2016-10-29T15:09:07Z</time>
      </trkpt>
      <trkpt lat="45.26776" lon="6.78976">
        <ele>1786.3</ele>
        <time>2016-10-29T15:09:11Z</time>
      </trkpt>
      <trkpt lat="45.26784" lon="6.78982">
        <ele>1786.6</ele>
        <time>2016-10-29T15:09:15Z</time>
      </trkpt>
      <trkpt lat="45.26793" lon="6.78989">
        <ele>1786.8</ele>
        <time>2016-10-29T15:09:19Z</time>
      </trkpt>
      <trkpt lat="45.26802" lon="6.78995">
        <ele>1787</ele>
        <time>2016-10-29T15:09:23Z</time>
      </trkpt>
      <trkpt lat="45.26811" lon="6.79003">
        <ele>1787.2</ele>
        <time>2016-10-29T15:09:27Z</time>
      </trkpt>
      <trkpt lat="45.26818" lon="6.79011">
        <ele>1787.3</ele>
        <time>2016-10-29T15:09:31Z</time>
      </trkpt>
      <trkpt lat="45.26826" lon="6.79019">
        <ele>1787.4</ele>
        <time>2016-10-29T15:09:35Z</time>
      </trkpt>
      <trkpt lat="45.26835" lon="6.79027">
        <ele>1787.6</ele>
        <time>2016-10-29T15:09:39Z</time>
      </trkpt>
      <trkpt lat="45.26844" lon="6.79035">
        <ele>1787.7</ele>
        <time>2016-10-29T15:09:42Z</time>
      </trkpt>
      <trkpt lat="45.26853" lon="6.79044">
        <ele>1787.8</ele>
        <time>2016-10-29T15:09:45Z</time>
      </trkpt>
      <trkpt lat="45.26864" lon="6.79054">
        <ele>1787.8</ele>
        <time>2016-10-29T15:09:47Z</time>
      </trkpt>
      <trkpt lat="45.26869" lon="6.79065">
        <ele>1787.8</ele>
        <time>2016-10-29T15:09:49Z</time>
      </trkpt>
      <trkpt lat="45.2687" lon="6.7908">
        <ele>1787.6</ele>
        <time>2016-10-29T15:09:52Z</time>
      </trkpt>
      <trkpt lat="45.26867" lon="6.79094">
        <ele>1787.3</ele>
        <time>2016-10-29T15:09:55Z</time>
      </trkpt>
      <trkpt lat="45.26868" lon="6.79109">
        <ele>1787.1</ele>
        <time>2016-10-29T15:09:59Z</time>
      </trkpt>
      <trkpt lat="45.26872" lon="6.79122">
        <ele>1787.5</ele>
        <time>2016-10-29T15:10:03Z</time>
      </trkpt>
      <trkpt lat="45.26878" lon="6.79133">
        <ele>1787.8</ele>
        <time>2016-10-29T15:10:07Z</time>
      </trkpt>
      <trkpt lat="45.26887" lon="6.79142">
        <ele>1788.2</ele>
        <time>2016-10-29T15:10:11Z</time>
      </trkpt>
      <trkpt lat="45.26896" lon="6.79148">
        <ele>1788.7</ele>
        <time>2016-10-29T15:10:15Z</time>
      </trkpt>
      <trkpt lat="45.26905" lon="6.79153">
        <ele>1789.2</ele>
        <time>2016-10-29T15:10:19Z</time>
      </trkpt>
      <trkpt lat="45.26914" lon="6.79157">
        <ele>1789.9</ele>
        <time>2016-10-29T15:10:25Z</time>
      </trkpt>
      <trkpt lat="45.26923" lon="6.79161">
        <ele>1790</ele>
        <time>2016-10-29T15:10:51Z</time>
      </trkpt>
      <trkpt lat="45.26933" lon="6.79157">
        <ele>1790</ele>
        <time>2016-10-29T15:10:55Z</time>
      </trkpt>
      <trkpt lat="45.26944" lon="6.79157">
        <ele>1789.6</ele>
        <time>2016-10-29T15:11:00Z</time>
      </trkpt>
      <trkpt lat="45.26952" lon="6.7916">
        <ele>1788.5</ele>
        <time>2016-10-29T15:11:08Z</time>
      </trkpt>
      <trkpt lat="45.26961" lon="6.79164">
        <ele>1785.8</ele>
        <time>2016-10-29T15:13:00Z</time>
      </trkpt>
      <trkpt lat="45.26963" lon="6.79151">
        <ele>1788.6</ele>
        <time>2016-10-29T15:15:05Z</time>
      </trkpt>
      <trkpt lat="45.2697" lon="6.79142">
        <ele>1791.6</ele>
        <time>2016-10-29T15:15:24Z</time>
      </trkpt>
      <trkpt lat="45.26977" lon="6.79135">
        <ele>1794</ele>
        <time>2016-10-29T15:15:40Z</time>
      </trkpt>
      <trkpt lat="45.26986" lon="6.79128">
        <ele>1795.6</ele>
        <time>2016-10-29T15:15:49Z</time>
      </trkpt>
      <trkpt lat="45.26994" lon="6.79122">
        <ele>1797.3</ele>
        <time>2016-10-29T15:15:58Z</time>
      </trkpt>
      <trkpt lat="45.27003" lon="6.79118">
        <ele>1799.1</ele>
        <time>2016-10-29T15:16:10Z</time>
      </trkpt>
      <trkpt lat="45.27011" lon="6.79112">
        <ele>1801.2</ele>
        <time>2016-10-29T15:16:27Z</time>
      </trkpt>
      <trkpt lat="45.2702" lon="6.79109">
        <ele>1803.6</ele>
        <time>2016-10-29T15:16:42Z</time>
      </trkpt>
      <trkpt lat="45.27028" lon="6.79103">
        <ele>1809.3</ele>
        <time>2016-10-29T15:17:17Z</time>
      </trkpt>
      <trkpt lat="45.27037" lon="6.79099">
        <ele>1812</ele>
        <time>2016-10-29T15:17:35Z</time>
      </trkpt>
      <trkpt lat="45.27046" lon="6.79093">
        <ele>1814</ele>
        <time>2016-10-29T15:17:48Z</time>
      </trkpt>
      <trkpt lat="45.27052" lon="6.79082">
        <ele>1816.5</ele>
        <time>2016-10-29T15:18:04Z</time>
      </trkpt>
      <trkpt lat="45.2706" lon="6.79076">
        <ele>1818.9</ele>
        <time>2016-10-29T15:18:19Z</time>
      </trkpt>
      <trkpt lat="45.27065" lon="6.79065">
        <ele>1822.2</ele>
        <time>2016-10-29T15:18:35Z</time>
      </trkpt>
      <trkpt lat="45.27071" lon="6.79055">
        <ele>1824.3</ele>
        <time>2016-10-29T15:18:49Z</time>
      </trkpt>
      <trkpt lat="45.27076" lon="6.79043">
        <ele>1825.8</ele>
        <time>2016-10-29T15:19:00Z</time>
      </trkpt>
      <trkpt lat="45.2708" lon="6.79032">
        <ele>1827.9</ele>
        <time>2016-10-29T15:19:11Z</time>
      </trkpt>
      <trkpt lat="45.27087" lon="6.79023">
        <ele>1833.2</ele>
        <time>2016-10-29T15:19:42Z</time>
      </trkpt>
      <trkpt lat="45.27093" lon="6.79014">
        <ele>1835.8</ele>
        <time>2016-10-29T15:19:56Z</time>
      </trkpt>
      <trkpt lat="45.271" lon="6.79005">
        <ele>1838.2</ele>
        <time>2016-10-29T15:20:13Z</time>
      </trkpt>
      <trkpt lat="45.27108" lon="6.78998">
        <ele>1840</ele>
        <time>2016-10-29T15:20:27Z</time>
      </trkpt>
      <trkpt lat="45.27117" lon="6.78993">
        <ele>1842.6</ele>
        <time>2016-10-29T15:20:44Z</time>
      </trkpt>
      <trkpt lat="45.27125" lon="6.78989">
        <ele>1845.2</ele>
        <time>2016-10-29T15:21:01Z</time>
      </trkpt>
      <trkpt lat="45.27134" lon="6.78983">
        <ele>1846.9</ele>
        <time>2016-10-29T15:21:13Z</time>
      </trkpt>
      <trkpt lat="45.27141" lon="6.78977">
        <ele>1849.5</ele>
        <time>2016-10-29T15:21:25Z</time>
      </trkpt>
      <trkpt lat="45.27148" lon="6.78969">
        <ele>1852.4</ele>
        <time>2016-10-29T15:21:47Z</time>
      </trkpt>
      <trkpt lat="45.27157" lon="6.78969">
        <ele>1858</ele>
        <time>2016-10-29T15:22:24Z</time>
      </trkpt>
      <trkpt lat="45.27166" lon="6.78964">
        <ele>1859.5</ele>
        <time>2016-10-29T15:22:33Z</time>
      </trkpt>
      <trkpt lat="45.27175" lon="6.78957">
        <ele>1860.7</ele>
        <time>2016-10-29T15:22:41Z</time>
      </trkpt>
      <trkpt lat="45.27183" lon="6.78951">
        <ele>1862.8</ele>
        <time>2016-10-29T15:22:55Z</time>
      </trkpt>
      <trkpt lat="45.2719" lon="6.78943">
        <ele>1866.2</ele>
        <time>2016-10-29T15:23:17Z</time>
      </trkpt>
      <trkpt lat="45.27197" lon="6.78933">
        <ele>1867.7</ele>
        <time>2016-10-29T15:23:33Z</time>
      </trkpt>
      <trkpt lat="45.27202" lon="6.78922">
        <ele>1869.5</ele>
        <time>2016-10-29T15:23:57Z</time>
      </trkpt>
      <trkpt lat="45.27203" lon="6.78909">
        <ele>1870.8</ele>
        <time>2016-10-29T15:24:11Z</time>
      </trkpt>
      <trkpt lat="45.27206" lon="6.78896">
        <ele>1872.8</ele>
        <time>2016-10-29T15:24:33Z</time>
      </trkpt>
      <trkpt lat="45.27209" lon="6.78884">
        <ele>1874</ele>
        <time>2016-10-29T15:24:41Z</time>
      </trkpt>
      <trkpt lat="45.27212" lon="6.78871">
        <ele>1874.9</ele>
        <time>2016-10-29T15:24:48Z</time>
      </trkpt>
      <trkpt lat="45.27219" lon="6.78861">
        <ele>1875.8</ele>
        <time>2016-10-29T15:24:55Z</time>
      </trkpt>
      <trkpt lat="45.27226" lon="6.7885">
        <ele>1876.4</ele>
        <time>2016-10-29T15:25:02Z</time>
      </trkpt>
      <trkpt lat="45.27231" lon="6.78838">
        <ele>1876.9</ele>
        <time>2016-10-29T15:25:08Z</time>
      </trkpt>
      <trkpt lat="45.27238" lon="6.78827">
        <ele>1877</ele>
        <time>2016-10-29T15:25:15Z</time>
      </trkpt>
      <trkpt lat="45.2725" lon="6.7882">
        <ele>1878</ele>
        <time>2016-10-29T15:25:23Z</time>
      </trkpt>
      <trkpt lat="45.27258" lon="6.78814">
        <ele>1878.5</ele>
        <time>2016-10-29T15:25:29Z</time>
      </trkpt>
      <trkpt lat="45.27261" lon="6.78799">
        <ele>1878</ele>
        <time>2016-10-29T15:25:35Z</time>
      </trkpt>
      <trkpt lat="45.27265" lon="6.78781">
        <ele>1879</ele>
        <time>2016-10-29T15:25:43Z</time>
      </trkpt>
      <trkpt lat="45.27274" lon="6.78766">
        <ele>1880</ele>
        <time>2016-10-29T15:25:51Z</time>
      </trkpt>
      <trkpt lat="45.27284" lon="6.78751">
        <ele>1880</ele>
        <time>2016-10-29T15:25:59Z</time>
      </trkpt>
      <trkpt lat="45.2729" lon="6.78739">
        <ele>1881</ele>
        <time>2016-10-29T15:26:07Z</time>
      </trkpt>
      <trkpt lat="45.27296" lon="6.78728">
        <ele>1882.2</ele>
        <time>2016-10-29T15:26:21Z</time>
      </trkpt>
      <trkpt lat="45.27301" lon="6.78712">
        <ele>1882</ele>
        <time>2016-10-29T15:26:29Z</time>
      </trkpt>
      <trkpt lat="45.27308" lon="6.78699">
        <ele>1883</ele>
        <time>2016-10-29T15:26:57Z</time>
      </trkpt>
      <trkpt lat="45.27314" lon="6.78689">
        <ele>1884</ele>
        <time>2016-10-29T15:27:25Z</time>
      </trkpt>
      <trkpt lat="45.27305" lon="6.78692">
        <ele>1886.9</ele>
        <time>2016-10-29T15:28:02Z</time>
      </trkpt>
      <trkpt lat="45.2731" lon="6.78678">
        <ele>1891</ele>
        <time>2016-10-29T15:28:31Z</time>
      </trkpt>
      <trkpt lat="45.27314" lon="6.78665">
        <ele>1895</ele>
        <time>2016-10-29T15:28:55Z</time>
      </trkpt>
      <trkpt lat="45.27322" lon="6.78659">
        <ele>1896</ele>
        <time>2016-10-29T15:29:19Z</time>
      </trkpt>
      <trkpt lat="45.27332" lon="6.78663">
        <ele>1893</ele>
        <time>2016-10-29T15:33:19Z</time>
      </trkpt>
      <trkpt lat="45.27342" lon="6.78667">
        <ele>1889.1</ele>
        <time>2016-10-29T15:33:56Z</time>
      </trkpt>
      <trkpt lat="45.27351" lon="6.78669">
        <ele>1887.8</ele>
        <time>2016-10-29T15:34:01Z</time>
      </trkpt>
      <trkpt lat="45.2736" lon="6.78667">
        <ele>1882.5</ele>
        <time>2016-10-29T15:34:19Z</time>
      </trkpt>
      <trkpt lat="45.27365" lon="6.78678">
        <ele>1877.3</ele>
        <time>2016-10-29T15:34:49Z</time>
      </trkpt>
      <trkpt lat="45.27374" lon="6.78682">
        <ele>1874.7</ele>
        <time>2016-10-29T15:35:03Z</time>
      </trkpt>
      <trkpt lat="45.27384" lon="6.78679">
        <ele>1872.8</ele>
        <time>2016-10-29T15:35:17Z</time>
      </trkpt>
      <trkpt lat="45.27394" lon="6.78674">
        <ele>1872.1</ele>
        <time>2016-10-29T15:35:21Z</time>
      </trkpt>
      <trkpt lat="45.27404" lon="6.78672">
        <ele>1870.9</ele>
        <time>2016-10-29T15:35:25Z</time>
      </trkpt>
      <trkpt lat="45.27411" lon="6.7866">
        <ele>1863.3</ele>
        <time>2016-10-29T15:36:01Z</time>
      </trkpt>
      <trkpt lat="45.27419" lon="6.78654">
        <ele>1861.6</ele>
        <time>2016-10-29T15:36:15Z</time>
      </trkpt>
      <trkpt lat="45.27428" lon="6.78653">
        <ele>1860.6</ele>
        <time>2016-10-29T15:36:28Z</time>
      </trkpt>
      <trkpt lat="45.27434" lon="6.78665">
        <ele>1859.6</ele>
        <time>2016-10-29T15:36:49Z</time>
      </trkpt>
      <trkpt lat="45.27434" lon="6.78678">
        <ele>1858.5</ele>
        <time>2016-10-29T15:36:57Z</time>
      </trkpt>
      <trkpt lat="45.27433" lon="6.78693">
        <ele>1857.3</ele>
        <time>2016-10-29T15:37:03Z</time>
      </trkpt>
      <trkpt lat="45.27433" lon="6.78706">
        <ele>1855.6</ele>
        <time>2016-10-29T15:37:08Z</time>
      </trkpt>
      <trkpt lat="45.27434" lon="6.7872">
        <ele>1853.3</ele>
        <time>2016-10-29T15:37:14Z</time>
      </trkpt>
      <trkpt lat="45.27436" lon="6.78734">
        <ele>1852.2</ele>
        <time>2016-10-29T15:37:17Z</time>
      </trkpt>
      <trkpt lat="45.27436" lon="6.78748">
        <ele>1850.7</ele>
        <time>2016-10-29T15:37:21Z</time>
      </trkpt>
      <trkpt lat="45.27436" lon="6.78762">
        <ele>1849.1</ele>
        <time>2016-10-29T15:37:25Z</time>
      </trkpt>
      <trkpt lat="45.27431" lon="6.78773">
        <ele>1842.5</ele>
        <time>2016-10-29T15:37:53Z</time>
      </trkpt>
      <trkpt lat="45.27434" lon="6.78786">
        <ele>1842.1</ele>
        <time>2016-10-29T15:37:59Z</time>
      </trkpt>
      <trkpt lat="45.27437" lon="6.788">
        <ele>1840.7</ele>
        <time>2016-10-29T15:38:14Z</time>
      </trkpt>
      <trkpt lat="45.2744" lon="6.78813">
        <ele>1840.2</ele>
        <time>2016-10-29T15:38:18Z</time>
      </trkpt>
      <trkpt lat="45.27439" lon="6.78829">
        <ele>1839.6</ele>
        <time>2016-10-29T15:38:23Z</time>
      </trkpt>
      <trkpt lat="45.27436" lon="6.78842">
        <ele>1839.2</ele>
        <time>2016-10-29T15:38:27Z</time>
      </trkpt>
      <trkpt lat="45.27434" lon="6.78857">
        <ele>1838.6</ele>
        <time>2016-10-29T15:38:31Z</time>
      </trkpt>
      <trkpt lat="45.27435" lon="6.78871">
        <ele>1837.9</ele>
        <time>2016-10-29T15:38:35Z</time>
      </trkpt>
      <trkpt lat="45.27437" lon="6.78886">
        <ele>1837</ele>
        <time>2016-10-29T15:38:39Z</time>
      </trkpt>
      <trkpt lat="45.27441" lon="6.78899">
        <ele>1836.4</ele>
        <time>2016-10-29T15:38:42Z</time>
      </trkpt>
      <trkpt lat="45.27444" lon="6.78913">
        <ele>1835.6</ele>
        <time>2016-10-29T15:38:46Z</time>
      </trkpt>
      <trkpt lat="45.27446" lon="6.78926">
        <ele>1834.4</ele>
        <time>2016-10-29T15:38:50Z</time>
      </trkpt>
      <trkpt lat="45.27449" lon="6.78941">
        <ele>1832.4</ele>
        <time>2016-10-29T15:38:56Z</time>
      </trkpt>
      <trkpt lat="45.2745" lon="6.78954">
        <ele>1831.2</ele>
        <time>2016-10-29T15:39:00Z</time>
      </trkpt>
      <trkpt lat="45.27451" lon="6.78967">
        <ele>1830.4</ele>
        <time>2016-10-29T15:39:03Z</time>
      </trkpt>
      <trkpt lat="45.27454" lon="6.78982">
        <ele>1829.1</ele>
        <time>2016-10-29T15:39:07Z</time>
      </trkpt>
      <trkpt lat="45.27457" lon="6.78997">
        <ele>1828.1</ele>
        <time>2016-10-29T15:39:11Z</time>
      </trkpt>
      <trkpt lat="45.2746" lon="6.7901">
        <ele>1827.3</ele>
        <time>2016-10-29T15:39:14Z</time>
      </trkpt>
      <trkpt lat="45.27464" lon="6.79025">
        <ele>1826.4</ele>
        <time>2016-10-29T15:39:17Z</time>
      </trkpt>
      <trkpt lat="45.27468" lon="6.79037">
        <ele>1825.5</ele>
        <time>2016-10-29T15:39:20Z</time>
      </trkpt>
      <trkpt lat="45.27468" lon="6.79052">
        <ele>1818.6</ele>
        <time>2016-10-29T15:41:21Z</time>
      </trkpt>
      <trkpt lat="45.27466" lon="6.79065">
        <ele>1818</ele>
        <time>2016-10-29T15:41:27Z</time>
      </trkpt>
      <trkpt lat="45.27464" lon="6.79079">
        <ele>1816.3</ele>
        <time>2016-10-29T15:41:33Z</time>
      </trkpt>
      <trkpt lat="45.27461" lon="6.79092">
        <ele>1814.1</ele>
        <time>2016-10-29T15:41:38Z</time>
      </trkpt>
      <trkpt lat="45.27459" lon="6.79105">
        <ele>1810</ele>
        <time>2016-10-29T15:41:44Z</time>
      </trkpt>
      <trkpt lat="45.27455" lon="6.79118">
        <ele>1805.6</ele>
        <time>2016-10-29T15:41:52Z</time>
      </trkpt>
      <trkpt lat="45.27461" lon="6.7913">
        <ele>1792.4</ele>
        <time>2016-10-29T15:42:39Z</time>
      </trkpt>
      <trkpt lat="45.27471" lon="6.79124">
        <ele>1790.9</ele>
        <time>2016-10-29T15:42:50Z</time>
      </trkpt>
      <trkpt lat="45.27478" lon="6.79115">
        <ele>1790.4</ele>
        <time>2016-10-29T15:42:53Z</time>
      </trkpt>
      <trkpt lat="45.27485" lon="6.79106">
        <ele>1789.7</ele>
        <time>2016-10-29T15:42:56Z</time>
      </trkpt>
      <trkpt lat="45.27495" lon="6.79109">
        <ele>1788</ele>
        <time>2016-10-29T15:43:01Z</time>
      </trkpt>
      <trkpt lat="45.27497" lon="6.79123">
        <ele>1787</ele>
        <time>2016-10-29T15:43:05Z</time>
      </trkpt>
      <trkpt lat="45.27499" lon="6.79138">
        <ele>1785.8</ele>
        <time>2016-10-29T15:43:10Z</time>
      </trkpt>
      <trkpt lat="45.27501" lon="6.79152">
        <ele>1784.5</ele>
        <time>2016-10-29T15:43:15Z</time>
      </trkpt>
      <trkpt lat="45.27502" lon="6.79165">
        <ele>1782.8</ele>
        <time>2016-10-29T15:43:20Z</time>
      </trkpt>
      <trkpt lat="45.27505" lon="6.79178">
        <ele>1781.4</ele>
        <time>2016-10-29T15:43:24Z</time>
      </trkpt>
      <trkpt lat="45.27511" lon="6.79192">
        <ele>1779.9</ele>
        <time>2016-10-29T15:43:28Z</time>
      </trkpt>
      <trkpt lat="45.27515" lon="6.79207">
        <ele>1778.1</ele>
        <time>2016-10-29T15:43:33Z</time>
      </trkpt>
      <trkpt lat="45.2752" lon="6.79219">
        <ele>1776.7</ele>
        <time>2016-10-29T15:43:37Z</time>
      </trkpt>
      <trkpt lat="45.27526" lon="6.79229">
        <ele>1775.4</ele>
        <time>2016-10-29T15:43:41Z</time>
      </trkpt>
      <trkpt lat="45.27535" lon="6.79231">
        <ele>1774</ele>
        <time>2016-10-29T15:43:45Z</time>
      </trkpt>
      <trkpt lat="45.27545" lon="6.7923">
        <ele>1772.8</ele>
        <time>2016-10-29T15:43:49Z</time>
      </trkpt>
      <trkpt lat="45.27554" lon="6.79225">
        <ele>1771</ele>
        <time>2016-10-29T15:43:53Z</time>
      </trkpt>
      <trkpt lat="45.27565" lon="6.79226">
        <ele>1769.3</ele>
        <time>2016-10-29T15:43:57Z</time>
      </trkpt>
      <trkpt lat="45.2757" lon="6.79239">
        <ele>1767.8</ele>
        <time>2016-10-29T15:44:00Z</time>
      </trkpt>
      <trkpt lat="45.27574" lon="6.79254">
        <ele>1765.8</ele>
        <time>2016-10-29T15:44:04Z</time>
      </trkpt>
      <trkpt lat="45.27581" lon="6.79263">
        <ele>1764</ele>
        <time>2016-10-29T15:44:07Z</time>
      </trkpt>
      <trkpt lat="45.27589" lon="6.79273">
        <ele>1761.6</ele>
        <time>2016-10-29T15:44:11Z</time>
      </trkpt>
      <trkpt lat="45.27589" lon="6.79287">
        <ele>1759.4</ele>
        <time>2016-10-29T15:44:15Z</time>
      </trkpt>
      <trkpt lat="45.27589" lon="6.79301">
        <ele>1757.3</ele>
        <time>2016-10-29T15:44:18Z</time>
      </trkpt>
      <trkpt lat="45.27587" lon="6.79316">
        <ele>1754.7</ele>
        <time>2016-10-29T15:44:22Z</time>
      </trkpt>
      <trkpt lat="45.27589" lon="6.7933">
        <ele>1750.8</ele>
        <time>2016-10-29T15:44:27Z</time>
      </trkpt>
      <trkpt lat="45.27595" lon="6.79341">
        <ele>1748.4</ele>
        <time>2016-10-29T15:44:30Z</time>
      </trkpt>
      <trkpt lat="45.27596" lon="6.79353">
        <ele>1745.2</ele>
        <time>2016-10-29T15:44:34Z</time>
      </trkpt>
      <trkpt lat="45.27601" lon="6.79368">
        <ele>1741.8</ele>
        <time>2016-10-29T15:44:38Z</time>
      </trkpt>
      <trkpt lat="45.27605" lon="6.79379">
        <ele>1739.5</ele>
        <time>2016-10-29T15:44:41Z</time>
      </trkpt>
      <trkpt lat="45.27609" lon="6.79393">
        <ele>1736.4</ele>
        <time>2016-10-29T15:44:45Z</time>
      </trkpt>
      <trkpt lat="45.27609" lon="6.79407">
        <ele>1732.1</ele>
        <time>2016-10-29T15:44:50Z</time>
      </trkpt>
      <trkpt lat="45.27607" lon="6.79422">
        <ele>1729.8</ele>
        <time>2016-10-29T15:44:53Z</time>
      </trkpt>
      <trkpt lat="45.27606" lon="6.79437">
        <ele>1727.6</ele>
        <time>2016-10-29T15:44:56Z</time>
      </trkpt>
      <trkpt lat="45.276" lon="6.79447">
        <ele>1726</ele>
        <time>2016-10-29T15:44:58Z</time>
      </trkpt>
      <trkpt lat="45.27594" lon="6.79462">
        <ele>1723.5</ele>
        <time>2016-10-29T15:45:01Z</time>
      </trkpt>
      <trkpt lat="45.27594" lon="6.79475">
        <ele>1712.8</ele>
        <time>2016-10-29T15:45:16Z</time>
      </trkpt>
      <trkpt lat="45.27587" lon="6.79485">
        <ele>1707.9</ele>
        <time>2016-10-29T15:45:31Z</time>
      </trkpt>
      <trkpt lat="45.27594" lon="6.79496">
        <ele>1703.9</ele>
        <time>2016-10-29T15:46:14Z</time>
      </trkpt>
      <trkpt lat="45.27599" lon="6.79508">
        <ele>1703.7</ele>
        <time>2016-10-29T15:46:18Z</time>
      </trkpt>
      <trkpt lat="45.27603" lon="6.79521">
        <ele>1702.4</ele>
        <time>2016-10-29T15:46:26Z</time>
      </trkpt>
      <trkpt lat="45.27612" lon="6.79523">
        <ele>1701.8</ele>
        <time>2016-10-29T15:46:29Z</time>
      </trkpt>
      <trkpt lat="45.27621" lon="6.79529">
        <ele>1700.9</ele>
        <time>2016-10-29T15:46:32Z</time>
      </trkpt>
      <trkpt lat="45.27628" lon="6.79539">
        <ele>1699.7</ele>
        <time>2016-10-29T15:46:35Z</time>
      </trkpt>
      <trkpt lat="45.2763" lon="6.79555">
        <ele>1697.9</ele>
        <time>2016-10-29T15:46:39Z</time>
      </trkpt>
      <trkpt lat="45.27629" lon="6.79569">
        <ele>1696.7</ele>
        <time>2016-10-29T15:46:42Z</time>
      </trkpt>
      <trkpt lat="45.27631" lon="6.79589">
        <ele>1692</ele>
        <time>2016-10-29T15:46:48Z</time>
      </trkpt>
      <trkpt lat="45.27637" lon="6.79601">
        <ele>1690</ele>
        <time>2016-10-29T15:46:52Z</time>
      </trkpt>
      <trkpt lat="45.27645" lon="6.79617">
        <ele>1686</ele>
        <time>2016-10-29T15:47:00Z</time>
      </trkpt>
      <trkpt lat="45.27642" lon="6.79629">
        <ele>1676.5</ele>
        <time>2016-10-29T15:47:35Z</time>
      </trkpt>
      <trkpt lat="45.2764" lon="6.79642">
        <ele>1675.1</ele>
        <time>2016-10-29T15:48:37Z</time>
      </trkpt>
      <trkpt lat="45.27642" lon="6.79654">
        <ele>1674.4</ele>
        <time>2016-10-29T15:48:42Z</time>
      </trkpt>
      <trkpt lat="45.27644" lon="6.79669">
        <ele>1672.9</ele>
        <time>2016-10-29T15:48:50Z</time>
      </trkpt>
      <trkpt lat="45.27648" lon="6.79681">
        <ele>1671.9</ele>
        <time>2016-10-29T15:48:53Z</time>
      </trkpt>
      <trkpt lat="45.27654" lon="6.79691">
        <ele>1671.2</ele>
        <time>2016-10-29T15:48:55Z</time>
      </trkpt>
      <trkpt lat="45.27659" lon="6.79708">
        <ele>1669.6</ele>
        <time>2016-10-29T15:48:58Z</time>
      </trkpt>
      <trkpt lat="45.27659" lon="6.79723">
        <ele>1667.5</ele>
        <time>2016-10-29T15:49:02Z</time>
      </trkpt>
      <trkpt lat="45.27661" lon="6.79742">
        <ele>1665.1</ele>
        <time>2016-10-29T15:49:06Z</time>
      </trkpt>
      <trkpt lat="45.27664" lon="6.7976">
        <ele>1663.2</ele>
        <time>2016-10-29T15:49:09Z</time>
      </trkpt>
      <trkpt lat="45.27668" lon="6.79774">
        <ele>1661.3</ele>
        <time>2016-10-29T15:49:12Z</time>
      </trkpt>
      <trkpt lat="45.27672" lon="6.79787">
        <ele>1660.1</ele>
        <time>2016-10-29T15:49:14Z</time>
      </trkpt>
      <trkpt lat="45.27677" lon="6.798">
        <ele>1658.5</ele>
        <time>2016-10-29T15:49:16Z</time>
      </trkpt>
      <trkpt lat="45.27683" lon="6.79812">
        <ele>1656.5</ele>
        <time>2016-10-29T15:49:19Z</time>
      </trkpt>
      <trkpt lat="45.27678" lon="6.79825">
        <ele>1649.3</ele>
        <time>2016-10-29T15:49:28Z</time>
      </trkpt>
      <trkpt lat="45.27675" lon="6.79837">
        <ele>1639.4</ele>
        <time>2016-10-29T15:49:51Z</time>
      </trkpt>
      <trkpt lat="45.27666" lon="6.79832">
        <ele>1637.1</ele>
        <time>2016-10-29T15:50:03Z</time>
      </trkpt>
      <trkpt lat="45.27658" lon="6.79822">
        <ele>1635.6</ele>
        <time>2016-10-29T15:50:10Z</time>
      </trkpt>
      <trkpt lat="45.2765" lon="6.79818">
        <ele>1634</ele>
        <time>2016-10-29T15:50:16Z</time>
      </trkpt>
      <trkpt lat="45.27641" lon="6.79814">
        <ele>1632.7</ele>
        <time>2016-10-29T15:50:20Z</time>
      </trkpt>
      <trkpt lat="45.2763" lon="6.79814">
        <ele>1631.3</ele>
        <time>2016-10-29T15:50:24Z</time>
      </trkpt>
      <trkpt lat="45.27623" lon="6.79804">
        <ele>1630.1</ele>
        <time>2016-10-29T15:50:27Z</time>
      </trkpt>
      <trkpt lat="45.27616" lon="6.7979">
        <ele>1628.8</ele>
        <time>2016-10-29T15:50:30Z</time>
      </trkpt>
      <trkpt lat="45.27614" lon="6.79777">
        <ele>1627</ele>
        <time>2016-10-29T15:50:33Z</time>
      </trkpt>
      <trkpt lat="45.27607" lon="6.79763">
        <ele>1624.7</ele>
        <time>2016-10-29T15:50:36Z</time>
      </trkpt>
      <trkpt lat="45.27599" lon="6.79755">
        <ele>1623.4</ele>
        <time>2016-10-29T15:50:38Z</time>
      </trkpt>
      <trkpt lat="45.27586" lon="6.79754">
        <ele>1621.3</ele>
        <time>2016-10-29T15:50:41Z</time>
      </trkpt>
      <trkpt lat="45.27577" lon="6.79757">
        <ele>1619.8</ele>
        <time>2016-10-29T15:50:43Z</time>
      </trkpt>
      <trkpt lat="45.27568" lon="6.79755">
        <ele>1616.4</ele>
        <time>2016-10-29T15:50:47Z</time>
      </trkpt>
      <trkpt lat="45.27565" lon="6.79736">
        <ele>1613.9</ele>
        <time>2016-10-29T15:50:50Z</time>
      </trkpt>
      <trkpt lat="45.27557" lon="6.79725">
        <ele>1611.4</ele>
        <time>2016-10-29T15:50:53Z</time>
      </trkpt>
      <trkpt lat="45.2755" lon="6.79716">
        <ele>1609.1</ele>
        <time>2016-10-29T15:50:56Z</time>
      </trkpt>
      <trkpt lat="45.27537" lon="6.79711">
        <ele>1606.8</ele>
        <time>2016-10-29T15:50:59Z</time>
      </trkpt>
      <trkpt lat="45.27527" lon="6.79706">
        <ele>1604.9</ele>
        <time>2016-10-29T15:51:02Z</time>
      </trkpt>
      <trkpt lat="45.27519" lon="6.79697">
        <ele>1603.1</ele>
        <time>2016-10-29T15:51:05Z</time>
      </trkpt>
      <trkpt lat="45.27512" lon="6.79686">
        <ele>1601.3</ele>
        <time>2016-10-29T15:51:08Z</time>
      </trkpt>
      <trkpt lat="45.27503" lon="6.79681">
        <ele>1594.4</ele>
        <time>2016-10-29T15:51:22Z</time>
      </trkpt>
      <trkpt lat="45.27512" lon="6.79686">
        <ele>1588.2</ele>
        <time>2016-10-29T15:52:12Z</time>
      </trkpt>
      <trkpt lat="45.27521" lon="6.79684">
        <ele>1587.9</ele>
        <time>2016-10-29T15:52:28Z</time>
      </trkpt>
      <trkpt lat="45.2753" lon="6.79683">
        <ele>1587.4</ele>
        <time>2016-10-29T15:52:56Z</time>
      </trkpt>
      <trkpt lat="45.2754" lon="6.79681">
        <ele>1587.3</ele>
        <time>2016-10-29T15:53:07Z</time>
      </trkpt>
      <trkpt lat="45.27536" lon="6.79694">
        <ele>1587.5</ele>
        <time>2016-10-29T15:54:11Z</time>
      </trkpt>
      <trkpt lat="45.27532" lon="6.79707">
        <ele>1587.4</ele>
        <time>2016-10-29T15:54:15Z</time>
      </trkpt>
      <trkpt lat="45.27529" lon="6.79721">
        <ele>1586.8</ele>
        <time>2016-10-29T15:54:20Z</time>
      </trkpt>
      <trkpt lat="45.2753" lon="6.79734">
        <ele>1585.4</ele>
        <time>2016-10-29T15:54:27Z</time>
      </trkpt>
      <trkpt lat="45.27535" lon="6.79745">
        <ele>1578.8</ele>
        <time>2016-10-29T15:54:48Z</time>
      </trkpt>
      <trkpt lat="45.27528" lon="6.79754">
        <ele>1577</ele>
        <time>2016-10-29T15:54:58Z</time>
      </trkpt>
      <trkpt lat="45.27521" lon="6.79765">
        <ele>1576.5</ele>
        <time>2016-10-29T15:55:08Z</time>
      </trkpt>
      <trkpt lat="45.27513" lon="6.79777">
        <ele>1576.2</ele>
        <time>2016-10-29T15:55:11Z</time>
      </trkpt>
      <trkpt lat="45.27508" lon="6.79787">
        <ele>1575.9</ele>
        <time>2016-10-29T15:55:13Z</time>
      </trkpt>
      <trkpt lat="45.27504" lon="6.79799">
        <ele>1575.5</ele>
        <time>2016-10-29T15:55:15Z</time>
      </trkpt>
      <trkpt lat="45.27493" lon="6.7982">
        <ele>1574</ele>
        <time>2016-10-29T15:55:19Z</time>
      </trkpt>
      <trkpt lat="45.27484" lon="6.7983">
        <ele>1573.4</ele>
        <time>2016-10-29T15:55:22Z</time>
      </trkpt>
      <trkpt lat="45.27475" lon="6.79839">
        <ele>1572.3</ele>
        <time>2016-10-29T15:55:24Z</time>
      </trkpt>
      <trkpt lat="45.2747" lon="6.79849">
        <ele>1570.9</ele>
        <time>2016-10-29T15:55:26Z</time>
      </trkpt>
      <trkpt lat="45.27466" lon="6.79863">
        <ele>1568.8</ele>
        <time>2016-10-29T15:55:29Z</time>
      </trkpt>
      <trkpt lat="45.27461" lon="6.79878">
        <ele>1566.6</ele>
        <time>2016-10-29T15:55:32Z</time>
      </trkpt>
      <trkpt lat="45.27454" lon="6.79886">
        <ele>1561.1</ele>
        <time>2016-10-29T15:55:40Z</time>
      </trkpt>
      <trkpt lat="45.27445" lon="6.79893">
        <ele>1556.8</ele>
        <time>2016-10-29T15:55:50Z</time>
      </trkpt>
      <trkpt lat="45.27437" lon="6.79899">
        <ele>1553.4</ele>
        <time>2016-10-29T15:56:02Z</time>
      </trkpt>
      <trkpt lat="45.2743" lon="6.79906">
        <ele>1552.5</ele>
        <time>2016-10-29T15:56:07Z</time>
      </trkpt>
      <trkpt lat="45.2742" lon="6.79916">
        <ele>1551.6</ele>
        <time>2016-10-29T15:56:10Z</time>
      </trkpt>
      <trkpt lat="45.27411" lon="6.79926">
        <ele>1550.5</ele>
        <time>2016-10-29T15:56:14Z</time>
      </trkpt>
      <trkpt lat="45.27402" lon="6.7993">
        <ele>1549</ele>
        <time>2016-10-29T15:56:18Z</time>
      </trkpt>
      <trkpt lat="45.27391" lon="6.79931">
        <ele>1547.6</ele>
        <time>2016-10-29T15:56:22Z</time>
      </trkpt>
      <trkpt lat="45.27383" lon="6.79938">
        <ele>1546.1</ele>
        <time>2016-10-29T15:56:26Z</time>
      </trkpt>
      <trkpt lat="45.27371" lon="6.7994">
        <ele>1544.3</ele>
        <time>2016-10-29T15:56:30Z</time>
      </trkpt>
      <trkpt lat="45.2736" lon="6.79946">
        <ele>1542.8</ele>
        <time>2016-10-29T15:56:33Z</time>
      </trkpt>
      <trkpt lat="45.27354" lon="6.79959">
        <ele>1541</ele>
        <time>2016-10-29T15:56:36Z</time>
      </trkpt>
      <trkpt lat="45.2735" lon="6.79973">
        <ele>1539</ele>
        <time>2016-10-29T15:56:39Z</time>
      </trkpt>
      <trkpt lat="45.27347" lon="6.79987">
        <ele>1536.4</ele>
        <time>2016-10-29T15:56:43Z</time>
      </trkpt>
      <trkpt lat="45.27341" lon="6.79997">
        <ele>1525.9</ele>
        <time>2016-10-29T15:57:09Z</time>
      </trkpt>
      <trkpt lat="45.27334" lon="6.80008">
        <ele>1525.5</ele>
        <time>2016-10-29T15:57:16Z</time>
      </trkpt>
      <trkpt lat="45.27328" lon="6.8002">
        <ele>1524.8</ele>
        <time>2016-10-29T15:57:20Z</time>
      </trkpt>
      <trkpt lat="45.2732" lon="6.80025">
        <ele>1524.1</ele>
        <time>2016-10-29T15:57:23Z</time>
      </trkpt>
      <trkpt lat="45.2731" lon="6.80028">
        <ele>1523.2</ele>
        <time>2016-10-29T15:57:26Z</time>
      </trkpt>
      <trkpt lat="45.27303" lon="6.80042">
        <ele>1521.7</ele>
        <time>2016-10-29T15:57:30Z</time>
      </trkpt>
      <trkpt lat="45.27303" lon="6.80057">
        <ele>1519.7</ele>
        <time>2016-10-29T15:57:34Z</time>
      </trkpt>
      <trkpt lat="45.273" lon="6.80073">
        <ele>1517.2</ele>
        <time>2016-10-29T15:57:39Z</time>
      </trkpt>
      <trkpt lat="45.27294" lon="6.80086">
        <ele>1515.2</ele>
        <time>2016-10-29T15:57:43Z</time>
      </trkpt>
      <trkpt lat="45.27289" lon="6.80101">
        <ele>1512.9</ele>
        <time>2016-10-29T15:57:47Z</time>
      </trkpt>
      <trkpt lat="45.27283" lon="6.80112">
        <ele>1511.1</ele>
        <time>2016-10-29T15:57:50Z</time>
      </trkpt>
      <trkpt lat="45.27278" lon="6.80127">
        <ele>1509.5</ele>
        <time>2016-10-29T15:57:53Z</time>
      </trkpt>
      <trkpt lat="45.27273" lon="6.80141">
        <ele>1507.7</ele>
        <time>2016-10-29T15:57:56Z</time>
      </trkpt>
      <trkpt lat="45.27266" lon="6.80153">
        <ele>1504.5</ele>
        <time>2016-10-29T15:58:01Z</time>
      </trkpt>
      <trkpt lat="45.2726" lon="6.80166">
        <ele>1502.8</ele>
        <time>2016-10-29T15:58:04Z</time>
      </trkpt>
      <trkpt lat="45.27253" lon="6.80174">
        <ele>1500.7</ele>
        <time>2016-10-29T15:58:08Z</time>
      </trkpt>
      <trkpt lat="45.27254" lon="6.80187">
        <ele>1489.3</ele>
        <time>2016-10-29T15:58:50Z</time>
      </trkpt>
      <trkpt lat="45.27265" lon="6.80184">
        <ele>1488.9</ele>
        <time>2016-10-29T15:58:57Z</time>
      </trkpt>
      <trkpt lat="45.27275" lon="6.80179">
        <ele>1488.7</ele>
        <time>2016-10-29T15:59:00Z</time>
      </trkpt>
      <trkpt lat="45.27287" lon="6.80172">
        <ele>1488.4</ele>
        <time>2016-10-29T15:59:03Z</time>
      </trkpt>
      <trkpt lat="45.27294" lon="6.80165">
        <ele>1487.4</ele>
        <time>2016-10-29T15:59:06Z</time>
      </trkpt>
      <trkpt lat="45.27304" lon="6.80157">
        <ele>1485.5</ele>
        <time>2016-10-29T15:59:10Z</time>
      </trkpt>
      <trkpt lat="45.27313" lon="6.80154">
        <ele>1482.3</ele>
        <time>2016-10-29T15:59:16Z</time>
      </trkpt>
      <trkpt lat="45.27311" lon="6.80167">
        <ele>1479.3</ele>
        <time>2016-10-29T15:59:22Z</time>
      </trkpt>
      <trkpt lat="45.2731" lon="6.8018">
        <ele>1476.3</ele>
        <time>2016-10-29T15:59:28Z</time>
      </trkpt>
      <trkpt lat="45.27306" lon="6.80196">
        <ele>1471.3</ele>
        <time>2016-10-29T15:59:41Z</time>
      </trkpt>
      <trkpt lat="45.273" lon="6.80209">
        <ele>1470.4</ele>
        <time>2016-10-29T15:59:44Z</time>
      </trkpt>
      <trkpt lat="45.27294" lon="6.80223">
        <ele>1468.8</ele>
        <time>2016-10-29T15:59:47Z</time>
      </trkpt>
      <trkpt lat="45.2729" lon="6.80238">
        <ele>1467.4</ele>
        <time>2016-10-29T15:59:50Z</time>
      </trkpt>
      <trkpt lat="45.27287" lon="6.8025">
        <ele>1465</ele>
        <time>2016-10-29T15:59:54Z</time>
      </trkpt>
      <trkpt lat="45.27278" lon="6.8026">
        <ele>1462.8</ele>
        <time>2016-10-29T15:59:58Z</time>
      </trkpt>
      <trkpt lat="45.27268" lon="6.80265">
        <ele>1461.2</ele>
        <time>2016-10-29T16:00:01Z</time>
      </trkpt>
      <trkpt lat="45.27256" lon="6.80268">
        <ele>1459.7</ele>
        <time>2016-10-29T16:00:04Z</time>
      </trkpt>
      <trkpt lat="45.27244" lon="6.80271">
        <ele>1458</ele>
        <time>2016-10-29T16:00:07Z</time>
      </trkpt>
      <trkpt lat="45.27234" lon="6.80272">
        <ele>1456.8</ele>
        <time>2016-10-29T16:00:09Z</time>
      </trkpt>
      <trkpt lat="45.27221" lon="6.80271">
        <ele>1455.7</ele>
        <time>2016-10-29T16:00:11Z</time>
      </trkpt>
      <trkpt lat="45.27207" lon="6.8027">
        <ele>1454.2</ele>
        <time>2016-10-29T16:00:13Z</time>
      </trkpt>
      <trkpt lat="45.27192" lon="6.80274">
        <ele>1452.7</ele>
        <time>2016-10-29T16:00:15Z</time>
      </trkpt>
      <trkpt lat="45.27178" lon="6.8028">
        <ele>1451.1</ele>
        <time>2016-10-29T16:00:17Z</time>
      </trkpt>
      <trkpt lat="45.27169" lon="6.80292">
        <ele>1449.3</ele>
        <time>2016-10-29T16:00:19Z</time>
      </trkpt>
      <trkpt lat="45.27169" lon="6.80306">
        <ele>1447.4</ele>
        <time>2016-10-29T16:00:21Z</time>
      </trkpt>
      <trkpt lat="45.27173" lon="6.80319">
        <ele>1445.3</ele>
        <time>2016-10-29T16:00:23Z</time>
      </trkpt>
      <trkpt lat="45.27179" lon="6.80332">
        <ele>1443.3</ele>
        <time>2016-10-29T16:00:25Z</time>
      </trkpt>
      <trkpt lat="45.27186" lon="6.80344">
        <ele>1441.4</ele>
        <time>2016-10-29T16:00:27Z</time>
      </trkpt>
      <trkpt lat="45.27192" lon="6.80355">
        <ele>1439.2</ele>
        <time>2016-10-29T16:00:29Z</time>
      </trkpt>
      <trkpt lat="45.2719" lon="6.80368">
        <ele>1435</ele>
        <time>2016-10-29T16:00:33Z</time>
      </trkpt>
      <trkpt lat="45.27184" lon="6.8038">
        <ele>1433.1</ele>
        <time>2016-10-29T16:00:35Z</time>
      </trkpt>
      <trkpt lat="45.2718" lon="6.80394">
        <ele>1431.3</ele>
        <time>2016-10-29T16:00:37Z</time>
      </trkpt>
      <trkpt lat="45.27175" lon="6.80405">
        <ele>1429.4</ele>
        <time>2016-10-29T16:00:39Z</time>
      </trkpt>
      <trkpt lat="45.27169" lon="6.80417">
        <ele>1427.8</ele>
        <time>2016-10-29T16:00:41Z</time>
      </trkpt>
      <trkpt lat="45.27161" lon="6.80433">
        <ele>1426.1</ele>
        <time>2016-10-29T16:00:43Z</time>
      </trkpt>
      <trkpt lat="45.27153" lon="6.80452">
        <ele>1424.6</ele>
        <time>2016-10-29T16:00:45Z</time>
      </trkpt>
      <trkpt lat="45.27146" lon="6.80469">
        <ele>1423</ele>
        <time>2016-10-29T16:00:47Z</time>
      </trkpt>
      <trkpt lat="45.2714" lon="6.80485">
        <ele>1421.4</ele>
        <time>2016-10-29T16:00:49Z</time>
      </trkpt>
      <trkpt lat="45.27133" lon="6.80501">
        <ele>1419.9</ele>
        <time>2016-10-29T16:00:51Z</time>
      </trkpt>
      <trkpt lat="45.27127" lon="6.80516">
        <ele>1418.3</ele>
        <time>2016-10-29T16:00:53Z</time>
      </trkpt>
      <trkpt lat="45.27125" lon="6.80529">
        <ele>1416.7</ele>
        <time>2016-10-29T16:00:55Z</time>
      </trkpt>
      <trkpt lat="45.27123" lon="6.80543">
        <ele>1415</ele>
        <time>2016-10-29T16:00:57Z</time>
      </trkpt>
      <trkpt lat="45.27124" lon="6.80556">
        <ele>1413.4</ele>
        <time>2016-10-29T16:00:59Z</time>
      </trkpt>
      <trkpt lat="45.27128" lon="6.80567">
        <ele>1411.5</ele>
        <time>2016-10-29T16:01:01Z</time>
      </trkpt>
      <trkpt lat="45.27129" lon="6.80581">
        <ele>1401.3</ele>
        <time>2016-10-29T16:01:14Z</time>
      </trkpt>
      <trkpt lat="45.27132" lon="6.80595">
        <ele>1399.4</ele>
        <time>2016-10-29T16:01:18Z</time>
      </trkpt>
      <trkpt lat="45.27132" lon="6.8061">
        <ele>1397.7</ele>
        <time>2016-10-29T16:01:22Z</time>
      </trkpt>
      <trkpt lat="45.27132" lon="6.80629">
        <ele>1396.3</ele>
        <time>2016-10-29T16:01:25Z</time>
      </trkpt>
      <trkpt lat="45.27133" lon="6.80646">
        <ele>1395.2</ele>
        <time>2016-10-29T16:01:27Z</time>
      </trkpt>
      <trkpt lat="45.27133" lon="6.80665">
        <ele>1394.2</ele>
        <time>2016-10-29T16:01:29Z</time>
      </trkpt>
      <trkpt lat="45.27133" lon="6.80681">
        <ele>1393.1</ele>
        <time>2016-10-29T16:01:31Z</time>
      </trkpt>
      <trkpt lat="45.27135" lon="6.80694">
        <ele>1391.9</ele>
        <time>2016-10-29T16:01:33Z</time>
      </trkpt>
      <trkpt lat="45.27137" lon="6.8071">
        <ele>1390.7</ele>
        <time>2016-10-29T16:01:35Z</time>
      </trkpt>
      <trkpt lat="45.27142" lon="6.80726">
        <ele>1389.6</ele>
        <time>2016-10-29T16:01:37Z</time>
      </trkpt>
      <trkpt lat="45.27146" lon="6.80744">
        <ele>1388.3</ele>
        <time>2016-10-29T16:01:39Z</time>
      </trkpt>
      <trkpt lat="45.27147" lon="6.80761">
        <ele>1387.2</ele>
        <time>2016-10-29T16:01:41Z</time>
      </trkpt>
      <trkpt lat="45.27149" lon="6.80774">
        <ele>1385.9</ele>
        <time>2016-10-29T16:01:43Z</time>
      </trkpt>
      <trkpt lat="45.27152" lon="6.80788">
        <ele>1382.2</ele>
        <time>2016-10-29T16:01:48Z</time>
      </trkpt>
      <trkpt lat="45.27153" lon="6.80802">
        <ele>1379.3</ele>
        <time>2016-10-29T16:01:52Z</time>
      </trkpt>
      <trkpt lat="45.27156" lon="6.80817">
        <ele>1377.8</ele>
        <time>2016-10-29T16:01:54Z</time>
      </trkpt>
      <trkpt lat="45.27159" lon="6.80832">
        <ele>1376.5</ele>
        <time>2016-10-29T16:01:56Z</time>
      </trkpt>
      <trkpt lat="45.27163" lon="6.80847">
        <ele>1375</ele>
        <time>2016-10-29T16:01:58Z</time>
      </trkpt>
      <trkpt lat="45.27165" lon="6.8086">
        <ele>1373.6</ele>
        <time>2016-10-29T16:02:00Z</time>
      </trkpt>
      <trkpt lat="45.27168" lon="6.80878">
        <ele>1371.7</ele>
        <time>2016-10-29T16:02:03Z</time>
      </trkpt>
      <trkpt lat="45.27171" lon="6.80892">
        <ele>1370.1</ele>
        <time>2016-10-29T16:02:06Z</time>
      </trkpt>
      <trkpt lat="45.27178" lon="6.80902">
        <ele>1368.4</ele>
        <time>2016-10-29T16:02:10Z</time>
      </trkpt>
      <trkpt lat="45.27188" lon="6.80899">
        <ele>1366.4</ele>
        <time>2016-10-29T16:02:15Z</time>
      </trkpt>
      <trkpt lat="45.27197" lon="6.809">
        <ele>1365.1</ele>
        <time>2016-10-29T16:02:19Z</time>
      </trkpt>
      <trkpt lat="45.27205" lon="6.8091">
        <ele>1363.7</ele>
        <time>2016-10-29T16:02:24Z</time>
      </trkpt>
      <trkpt lat="45.27209" lon="6.80924">
        <ele>1362.6</ele>
        <time>2016-10-29T16:02:30Z</time>
      </trkpt>
      <trkpt lat="45.27208" lon="6.80938">
        <ele>1361.7</ele>
        <time>2016-10-29T16:02:35Z</time>
      </trkpt>
      <trkpt lat="45.272" lon="6.80947">
        <ele>1361</ele>
        <time>2016-10-29T16:02:40Z</time>
      </trkpt>
      <trkpt lat="45.27191" lon="6.80948">
        <ele>1360.5</ele>
        <time>2016-10-29T16:02:44Z</time>
      </trkpt>
      <trkpt lat="45.27191" lon="6.80948">
        <ele>1360.5</ele>
        <time>2016-10-29T16:02:44Z</time>
      </trkpt>
      <trkpt lat="45.27181" lon="6.8095">
        <ele>1360.2</ele>
        <time>2016-10-29T16:02:49Z</time>
      </trkpt>
      <trkpt lat="45.27171" lon="6.80955">
        <ele>1359.9</ele>
        <time>2016-10-29T16:02:54Z</time>
      </trkpt>
      <trkpt lat="45.27166" lon="6.80967">
        <ele>1359.6</ele>
        <time>2016-10-29T16:03:00Z</time>
      </trkpt>
      <trkpt lat="45.27166" lon="6.80981">
        <ele>1359.6</ele>
        <time>2016-10-29T16:03:06Z</time>
      </trkpt>
      <trkpt lat="45.27169" lon="6.80992">
        <ele>1360.5</ele>
        <time>2016-10-29T16:03:13Z</time>
      </trkpt>
      <trkpt lat="45.27176" lon="6.81002">
        <ele>1361.7</ele>
        <time>2016-10-29T16:03:20Z</time>
      </trkpt>
      <trkpt lat="45.27132" lon="6.81013">
        <ele>1340.4</ele>
      </trkpt>
      <trkpt lat="45.27111" lon="6.81003">
        <ele>1340.8</ele>
      </trkpt>
      <trkpt lat="45.27073" lon="6.81001">
        <ele>1369.3</ele>
        <time>2016-10-29T14:10:02Z</time>
      </trkpt>
      <trkpt lat="45.27063" lon="6.80998">
        <ele>1369.1</ele>
        <time>2016-10-29T14:10:04Z</time>
      </trkpt>
      <trkpt lat="45.27052" lon="6.80995">
        <ele>1368.8</ele>
        <time>2016-10-29T14:10:06Z</time>
      </trkpt>
      <trkpt lat="45.2704" lon="6.80992">
        <ele>1368.4</ele>
        <time>2016-10-29T14:10:08Z</time>
      </trkpt>
      <trkpt lat="45.27028" lon="6.80989">
        <ele>1367.9</ele>
        <time>2016-10-29T14:10:10Z</time>
      </trkpt>
      <trkpt lat="45.27015" lon="6.80986">
        <ele>1367.1</ele>
        <time>2016-10-29T14:10:12Z</time>
      </trkpt>
      <trkpt lat="45.27002" lon="6.80982">
        <ele>1366.1</ele>
        <time>2016-10-29T14:10:14Z</time>
      </trkpt>
      <trkpt lat="45.26989" lon="6.80979">
        <ele>1365.2</ele>
        <time>2016-10-29T14:10:16Z</time>
      </trkpt>
      <trkpt lat="45.26978" lon="6.80976">
        <ele>1364.3</ele>
        <time>2016-10-29T14:10:18Z</time>
      </trkpt>
      <trkpt lat="45.26968" lon="6.80974">
        <ele>1363</ele>
        <time>2016-10-29T14:10:21Z</time>
      </trkpt>
      <trkpt lat="45.26959" lon="6.80974">
        <ele>1357.1</ele>
        <time>2016-10-29T14:10:40Z</time>
      </trkpt>
      <trkpt lat="45.26948" lon="6.80975">
        <ele>1356.6</ele>
        <time>2016-10-29T14:10:43Z</time>
      </trkpt>
      <trkpt lat="45.26934" lon="6.80975">
        <ele>1356</ele>
        <time>2016-10-29T14:10:46Z</time>
      </trkpt>
      <trkpt lat="45.26924" lon="6.80974">
        <ele>1355.6</ele>
        <time>2016-10-29T14:10:48Z</time>
      </trkpt>
      <trkpt lat="45.26912" lon="6.80973">
        <ele>1355.2</ele>
        <time>2016-10-29T14:10:50Z</time>
      </trkpt>
      <trkpt lat="45.269" lon="6.80974">
        <ele>1354.8</ele>
        <time>2016-10-29T14:10:52Z</time>
      </trkpt>
      <trkpt lat="45.26889" lon="6.80979">
        <ele>1354.3</ele>
        <time>2016-10-29T14:10:54Z</time>
      </trkpt>
      <trkpt lat="45.26879" lon="6.80991">
        <ele>1353.6</ele>
        <time>2016-10-29T14:10:57Z</time>
      </trkpt>
      <trkpt lat="45.26874" lon="6.81001">
        <ele>1353</ele>
        <time>2016-10-29T14:10:59Z</time>
      </trkpt>
      <trkpt lat="45.26868" lon="6.81012">
        <ele>1352.3</ele>
        <time>2016-10-29T14:11:01Z</time>
      </trkpt>
      <trkpt lat="45.26862" lon="6.81023">
        <ele>1351.6</ele>
        <time>2016-10-29T14:11:03Z</time>
      </trkpt>
      <trkpt lat="45.26855" lon="6.81034">
        <ele>1350.9</ele>
        <time>2016-10-29T14:11:05Z</time>
      </trkpt>
      <trkpt lat="45.26848" lon="6.81044">
        <ele>1350.4</ele>
        <time>2016-10-29T14:11:07Z</time>
      </trkpt>
      <trkpt lat="45.26841" lon="6.81053">
        <ele>1349.7</ele>
        <time>2016-10-29T14:11:09Z</time>
      </trkpt>
      <trkpt lat="45.26832" lon="6.81061">
        <ele>1348.6</ele>
        <time>2016-10-29T14:11:12Z</time>
      </trkpt>
      <trkpt lat="45.26821" lon="6.81058">
        <ele>1347.5</ele>
        <time>2016-10-29T14:11:15Z</time>
      </trkpt>
      <trkpt lat="45.26812" lon="6.81055">
        <ele>1346.8</ele>
        <time>2016-10-29T14:11:17Z</time>
      </trkpt>
      <trkpt lat="45.26802" lon="6.81051">
        <ele>1346.2</ele>
        <time>2016-10-29T14:11:19Z</time>
      </trkpt>
      <trkpt lat="45.26792" lon="6.81048">
        <ele>1345.6</ele>
        <time>2016-10-29T14:11:21Z</time>
      </trkpt>
      <trkpt lat="45.26782" lon="6.81044">
        <ele>1345</ele>
        <time>2016-10-29T14:11:23Z</time>
      </trkpt>
      <trkpt lat="45.26772" lon="6.81042">
        <ele>1344.3</ele>
        <time>2016-10-29T14:11:25Z</time>
      </trkpt>
      <trkpt lat="45.26762" lon="6.8104">
        <ele>1343.7</ele>
        <time>2016-10-29T14:11:27Z</time>
      </trkpt>
      <trkpt lat="45.26752" lon="6.8104">
        <ele>1343.2</ele>
        <time>2016-10-29T14:11:29Z</time>
      </trkpt>
      <trkpt lat="45.26742" lon="6.81041">
        <ele>1342.6</ele>
        <time>2016-10-29T14:11:31Z</time>
      </trkpt>
      <trkpt lat="45.26732" lon="6.81042">
        <ele>1342</ele>
        <time>2016-10-29T14:11:33Z</time>
      </trkpt>
      <trkpt lat="45.26723" lon="6.81042">
        <ele>1341.6</ele>
        <time>2016-10-29T14:11:35Z</time>
      </trkpt>
      <trkpt lat="45.26713" lon="6.81043">
        <ele>1341.1</ele>
        <time>2016-10-29T14:11:37Z</time>
      </trkpt>
      <trkpt lat="45.26701" lon="6.8104">
        <ele>1340.6</ele>
        <time>2016-10-29T14:11:40Z</time>
      </trkpt>
      <trkpt lat="45.26689" lon="6.81034">
        <ele>1340.3</ele>
        <time>2016-10-29T14:11:43Z</time>
      </trkpt>
      <trkpt lat="45.26679" lon="6.81027">
        <ele>1340.2</ele>
        <time>2016-10-29T14:11:46Z</time>
      </trkpt>
      <trkpt lat="45.26668" lon="6.81017">
        <ele>1340.1</ele>
        <time>2016-10-29T14:11:49Z</time>
      </trkpt>
      <trkpt lat="45.2666" lon="6.8101">
        <ele>1340</ele>
        <time>2016-10-29T14:11:51Z</time>
      </trkpt>
      <trkpt lat="45.26651" lon="6.81002">
        <ele>1340</ele>
        <time>2016-10-29T14:11:53Z</time>
      </trkpt>
      <trkpt lat="45.26642" lon="6.80995">
        <ele>1339.9</ele>
        <time>2016-10-29T14:11:55Z</time>
      </trkpt>
      <trkpt lat="45.26632" lon="6.80987">
        <ele>1339.9</ele>
        <time>2016-10-29T14:11:57Z</time>
      </trkpt>
      <trkpt lat="45.26623" lon="6.80978">
        <ele>1339.9</ele>
        <time>2016-10-29T14:11:59Z</time>
      </trkpt>
      <trkpt lat="45.26614" lon="6.8097">
        <ele>1339.8</ele>
        <time>2016-10-29T14:12:01Z</time>
      </trkpt>
      <trkpt lat="45.26606" lon="6.80963">
        <ele>1339.8</ele>
        <time>2016-10-29T14:12:03Z</time>
      </trkpt>
      <trkpt lat="45.26595" lon="6.80953">
        <ele>1339.6</ele>
        <time>2016-10-29T14:12:06Z</time>
      </trkpt>
      <trkpt lat="45.26583" lon="6.80943">
        <ele>1339.5</ele>
        <time>2016-10-29T14:12:09Z</time>
      </trkpt>
      <trkpt lat="45.26572" lon="6.80935">
        <ele>1339.4</ele>
        <time>2016-10-29T14:12:12Z</time>
      </trkpt>
    </trkseg>
  </trk>
</gpx>